<?xml version="1.0" encoding="UTF-8" standalone="no" ?>
<gpx xmlns="http://www.topografix.com/GPX/1/1" xmlns:xsi="http://www.w3.org/2001/XMLSchema-instance" xsi:schemaLocation="http://www.topografix.com/GPX/1/1 http://www.topografix.com/GPX/1/1/gpx.xsd" version="1.1" creator="VisuGPX - https://www.visugpx.com">
  <metadata>
    <name>la coquillade</name>
    <desc><![CDATA[grand huit au pic de la coquillade]]></desc>
  </metadata>
  <trk>
    <name><![CDATA[utgtrack-7342]]></name>
    <trkseg>
      <trkpt lat="43.54444" lon="3.12514">
        <ele>310.748291</ele>
        <time>2013-01-30T12:07:35Z</time>
      </trkpt>
      <trkpt lat="43.54436" lon="3.12564">
        <ele>308.963745</ele>
        <time>2013-01-30T12:07:36Z</time>
      </trkpt>
      <trkpt lat="43.54421" lon="3.12612">
        <ele>313.931763</ele>
        <time>2013-01-30T12:07:50Z</time>
      </trkpt>
      <trkpt lat="43.54399" lon="3.12655">
        <ele>312.276611</ele>
        <time>2013-01-30T12:08:02Z</time>
      </trkpt>
      <trkpt lat="43.54388" lon="3.12717">
        <ele>313.956146</ele>
        <time>2013-01-30T12:08:18Z</time>
      </trkpt>
      <trkpt lat="43.54396" lon="3.1273">
        <ele>317.202789</ele>
        <time>2013-01-30T12:08:23Z</time>
      </trkpt>
      <trkpt lat="43.54398" lon="3.1273">
        <ele>317.909149</ele>
        <time>2013-01-30T12:08:24Z</time>
      </trkpt>
      <trkpt lat="43.54403" lon="3.12728">
        <ele>319.030457</ele>
        <time>2013-01-30T12:08:26Z</time>
      </trkpt>
      <trkpt lat="43.54411" lon="3.12722">
        <ele>320.770325</ele>
        <time>2013-01-30T12:08:30Z</time>
      </trkpt>
      <trkpt lat="43.54419" lon="3.12726">
        <ele>323.53241</ele>
        <time>2013-01-30T12:08:35Z</time>
      </trkpt>
      <trkpt lat="43.54436" lon="3.1275">
        <ele>328.518738</ele>
        <time>2013-01-30T12:08:50Z</time>
      </trkpt>
      <trkpt lat="43.54456" lon="3.12778">
        <ele>334.0448</ele>
        <time>2013-01-30T12:09:05Z</time>
      </trkpt>
      <trkpt lat="43.54493" lon="3.12833">
        <ele>340.961975</ele>
        <time>2013-01-30T12:09:34Z</time>
      </trkpt>
      <trkpt lat="43.54511" lon="3.12872">
        <ele>340.416199</ele>
        <time>2013-01-30T12:09:49Z</time>
      </trkpt>
      <trkpt lat="43.54528" lon="3.12903">
        <ele>340.244354</ele>
        <time>2013-01-30T12:10:03Z</time>
      </trkpt>
      <trkpt lat="43.54547" lon="3.12938">
        <ele>340.014984</ele>
        <time>2013-01-30T12:10:17Z</time>
      </trkpt>
      <trkpt lat="43.54575" lon="3.12979">
        <ele>341.536652</ele>
        <time>2013-01-30T12:10:33Z</time>
      </trkpt>
      <trkpt lat="43.54617" lon="3.13063">
        <ele>343.902283</ele>
        <time>2013-01-30T12:11:03Z</time>
      </trkpt>
      <trkpt lat="43.54649" lon="3.1309">
        <ele>348.148438</ele>
        <time>2013-01-30T12:11:18Z</time>
      </trkpt>
      <trkpt lat="43.54688" lon="3.1312">
        <ele>351.234985</ele>
        <time>2013-01-30T12:11:35Z</time>
      </trkpt>
      <trkpt lat="43.54717" lon="3.13144">
        <ele>353.692139</ele>
        <time>2013-01-30T12:11:48Z</time>
      </trkpt>
      <trkpt lat="43.5474" lon="3.13164">
        <ele>354.888977</ele>
        <time>2013-01-30T12:11:59Z</time>
      </trkpt>
      <trkpt lat="43.5481" lon="3.13193">
        <ele>361.304443</ele>
        <time>2013-01-30T12:12:29Z</time>
      </trkpt>
      <trkpt lat="43.54841" lon="3.13194">
        <ele>365.093811</ele>
        <time>2013-01-30T12:12:42Z</time>
      </trkpt>
      <trkpt lat="43.54877" lon="3.13194">
        <ele>368.411377</ele>
        <time>2013-01-30T12:12:56Z</time>
      </trkpt>
      <trkpt lat="43.54917" lon="3.13193">
        <ele>371.16626</ele>
        <time>2013-01-30T12:13:12Z</time>
      </trkpt>
      <trkpt lat="43.54952" lon="3.13193">
        <ele>373.693756</ele>
        <time>2013-01-30T12:13:26Z</time>
      </trkpt>
      <trkpt lat="43.55008" lon="3.13186">
        <ele>378.407654</ele>
        <time>2013-01-30T12:13:49Z</time>
      </trkpt>
      <trkpt lat="43.55044" lon="3.13181">
        <ele>380.458099</ele>
        <time>2013-01-30T12:14:03Z</time>
      </trkpt>
      <trkpt lat="43.55075" lon="3.13173">
        <ele>383.056458</ele>
        <time>2013-01-30T12:14:16Z</time>
      </trkpt>
      <trkpt lat="43.55105" lon="3.13162">
        <ele>387.057404</ele>
        <time>2013-01-30T12:14:29Z</time>
      </trkpt>
      <trkpt lat="43.55139" lon="3.13147">
        <ele>392.089783</ele>
        <time>2013-01-30T12:14:44Z</time>
      </trkpt>
      <trkpt lat="43.55187" lon="3.13154">
        <ele>398.591492</ele>
        <time>2013-01-30T12:15:07Z</time>
      </trkpt>
      <trkpt lat="43.55188" lon="3.13152">
        <ele>398.936127</ele>
        <time>2013-01-30T12:15:08Z</time>
      </trkpt>
      <trkpt lat="43.55189" lon="3.1315">
        <ele>399.222992</ele>
        <time>2013-01-30T12:15:09Z</time>
      </trkpt>
      <trkpt lat="43.55188" lon="3.13148">
        <ele>399.407867</ele>
        <time>2013-01-30T12:15:10Z</time>
      </trkpt>
      <trkpt lat="43.55188" lon="3.13146">
        <ele>399.524597</ele>
        <time>2013-01-30T12:15:11Z</time>
      </trkpt>
      <trkpt lat="43.5516" lon="3.13112">
        <ele>400.994232</ele>
        <time>2013-01-30T12:15:29Z</time>
      </trkpt>
      <trkpt lat="43.55139" lon="3.13084">
        <ele>406.091522</ele>
        <time>2013-01-30T12:15:44Z</time>
      </trkpt>
      <trkpt lat="43.55101" lon="3.13086">
        <ele>407.26767</ele>
        <time>2013-01-30T12:16:01Z</time>
      </trkpt>
      <trkpt lat="43.55083" lon="3.13085">
        <ele>408.642975</ele>
        <time>2013-01-30T12:16:10Z</time>
      </trkpt>
      <trkpt lat="43.55082" lon="3.13082">
        <ele>409.362488</ele>
        <time>2013-01-30T12:16:11Z</time>
      </trkpt>
      <trkpt lat="43.55082" lon="3.13078">
        <ele>410.552826</ele>
        <time>2013-01-30T12:16:13Z</time>
      </trkpt>
      <trkpt lat="43.55084" lon="3.13077">
        <ele>410.800781</ele>
        <time>2013-01-30T12:16:14Z</time>
      </trkpt>
      <trkpt lat="43.55085" lon="3.13077">
        <ele>410.868286</ele>
        <time>2013-01-30T12:16:15Z</time>
      </trkpt>
      <trkpt lat="43.55087" lon="3.13076">
        <ele>410.962555</ele>
        <time>2013-01-30T12:16:16Z</time>
      </trkpt>
      <trkpt lat="43.55089" lon="3.13075">
        <ele>411.05481</ele>
        <time>2013-01-30T12:16:17Z</time>
      </trkpt>
      <trkpt lat="43.55118" lon="3.13056">
        <ele>414.203705</ele>
        <time>2013-01-30T12:16:32Z</time>
      </trkpt>
      <trkpt lat="43.55142" lon="3.13029">
        <ele>418.243439</ele>
        <time>2013-01-30T12:16:46Z</time>
      </trkpt>
      <trkpt lat="43.55165" lon="3.13023">
        <ele>418.684753</ele>
        <time>2013-01-30T12:16:58Z</time>
      </trkpt>
      <trkpt lat="43.55166" lon="3.13021">
        <ele>419.099701</ele>
        <time>2013-01-30T12:16:59Z</time>
      </trkpt>
      <trkpt lat="43.55166" lon="3.13019">
        <ele>419.543701</ele>
        <time>2013-01-30T12:17:00Z</time>
      </trkpt>
      <trkpt lat="43.55165" lon="3.13015">
        <ele>420.38089</ele>
        <time>2013-01-30T12:17:02Z</time>
      </trkpt>
      <trkpt lat="43.55164" lon="3.13014">
        <ele>420.718903</ele>
        <time>2013-01-30T12:17:03Z</time>
      </trkpt>
      <trkpt lat="43.55162" lon="3.13013">
        <ele>421.011719</ele>
        <time>2013-01-30T12:17:04Z</time>
      </trkpt>
      <trkpt lat="43.5516" lon="3.13012">
        <ele>421.307098</ele>
        <time>2013-01-30T12:17:05Z</time>
      </trkpt>
      <trkpt lat="43.55158" lon="3.13011">
        <ele>421.605011</ele>
        <time>2013-01-30T12:17:06Z</time>
      </trkpt>
      <trkpt lat="43.55155" lon="3.13009">
        <ele>422.25296</ele>
        <time>2013-01-30T12:17:08Z</time>
      </trkpt>
      <trkpt lat="43.55153" lon="3.13008">
        <ele>422.46933</ele>
        <time>2013-01-30T12:17:09Z</time>
      </trkpt>
      <trkpt lat="43.55142" lon="3.13002">
        <ele>424.422028</ele>
        <time>2013-01-30T12:17:15Z</time>
      </trkpt>
      <trkpt lat="43.55142" lon="3.13">
        <ele>424.920197</ele>
        <time>2013-01-30T12:17:16Z</time>
      </trkpt>
      <trkpt lat="43.55142" lon="3.12998">
        <ele>425.391632</ele>
        <time>2013-01-30T12:17:17Z</time>
      </trkpt>
      <trkpt lat="43.55145" lon="3.12994">
        <ele>426.137634</ele>
        <time>2013-01-30T12:17:19Z</time>
      </trkpt>
      <trkpt lat="43.55147" lon="3.12993">
        <ele>426.280853</ele>
        <time>2013-01-30T12:17:20Z</time>
      </trkpt>
      <trkpt lat="43.55148" lon="3.12992">
        <ele>426.315613</ele>
        <time>2013-01-30T12:17:21Z</time>
      </trkpt>
      <trkpt lat="43.5515" lon="3.12991">
        <ele>426.334137</ele>
        <time>2013-01-30T12:17:22Z</time>
      </trkpt>
      <trkpt lat="43.55152" lon="3.12991">
        <ele>426.275604</ele>
        <time>2013-01-30T12:17:23Z</time>
      </trkpt>
      <trkpt lat="43.55155" lon="3.1299">
        <ele>426.277954</ele>
        <time>2013-01-30T12:17:25Z</time>
      </trkpt>
      <trkpt lat="43.55157" lon="3.12989">
        <ele>426.408203</ele>
        <time>2013-01-30T12:17:26Z</time>
      </trkpt>
      <trkpt lat="43.55158" lon="3.12987">
        <ele>426.554352</ele>
        <time>2013-01-30T12:17:27Z</time>
      </trkpt>
      <trkpt lat="43.55179" lon="3.1296">
        <ele>429.414825</ele>
        <time>2013-01-30T12:17:43Z</time>
      </trkpt>
      <trkpt lat="43.55196" lon="3.12931">
        <ele>431.551239</ele>
        <time>2013-01-30T12:17:57Z</time>
      </trkpt>
      <trkpt lat="43.55233" lon="3.12861">
        <ele>436.298157</ele>
        <time>2013-01-30T12:18:29Z</time>
      </trkpt>
      <trkpt lat="43.55248" lon="3.1282">
        <ele>442.332275</ele>
        <time>2013-01-30T12:18:45Z</time>
      </trkpt>
      <trkpt lat="43.55267" lon="3.12795">
        <ele>445.117065</ele>
        <time>2013-01-30T12:18:59Z</time>
      </trkpt>
      <trkpt lat="43.55267" lon="3.12793">
        <ele>445.486908</ele>
        <time>2013-01-30T12:19:00Z</time>
      </trkpt>
      <trkpt lat="43.55266" lon="3.12791">
        <ele>445.878174</ele>
        <time>2013-01-30T12:19:01Z</time>
      </trkpt>
      <trkpt lat="43.55262" lon="3.12789">
        <ele>446.261566</ele>
        <time>2013-01-30T12:19:03Z</time>
      </trkpt>
      <trkpt lat="43.55261" lon="3.1279">
        <ele>446.311188</ele>
        <time>2013-01-30T12:19:04Z</time>
      </trkpt>
      <trkpt lat="43.55259" lon="3.1279">
        <ele>446.334503</ele>
        <time>2013-01-30T12:19:05Z</time>
      </trkpt>
      <trkpt lat="43.55219" lon="3.12794">
        <ele>448.649109</ele>
        <time>2013-01-30T12:19:23Z</time>
      </trkpt>
      <trkpt lat="43.55218" lon="3.12792">
        <ele>448.888</ele>
        <time>2013-01-30T12:19:24Z</time>
      </trkpt>
      <trkpt lat="43.55219" lon="3.12787">
        <ele>449.066315</ele>
        <time>2013-01-30T12:19:26Z</time>
      </trkpt>
      <trkpt lat="43.5522" lon="3.12786">
        <ele>449.076691</ele>
        <time>2013-01-30T12:19:27Z</time>
      </trkpt>
      <trkpt lat="43.55221" lon="3.12784">
        <ele>449.084961</ele>
        <time>2013-01-30T12:19:28Z</time>
      </trkpt>
      <trkpt lat="43.55222" lon="3.12782">
        <ele>449.08139</ele>
        <time>2013-01-30T12:19:29Z</time>
      </trkpt>
      <trkpt lat="43.55224" lon="3.12781">
        <ele>449.06311</ele>
        <time>2013-01-30T12:19:30Z</time>
      </trkpt>
      <trkpt lat="43.55256" lon="3.1272">
        <ele>454.044708</ele>
        <time>2013-01-30T12:20:03Z</time>
      </trkpt>
      <trkpt lat="43.5526" lon="3.12686">
        <ele>456.325745</ele>
        <time>2013-01-30T12:20:17Z</time>
      </trkpt>
      <trkpt lat="43.55269" lon="3.12656">
        <ele>459.058899</ele>
        <time>2013-01-30T12:20:33Z</time>
      </trkpt>
      <trkpt lat="43.55283" lon="3.12617">
        <ele>463.693787</ele>
        <time>2013-01-30T12:20:52Z</time>
      </trkpt>
      <trkpt lat="43.55289" lon="3.12583">
        <ele>465.792358</ele>
        <time>2013-01-30T12:21:09Z</time>
      </trkpt>
      <trkpt lat="43.55306" lon="3.12517">
        <ele>470.770935</ele>
        <time>2013-01-30T12:21:41Z</time>
      </trkpt>
      <trkpt lat="43.55316" lon="3.12478">
        <ele>473.738708</ele>
        <time>2013-01-30T12:21:58Z</time>
      </trkpt>
      <trkpt lat="43.55326" lon="3.12449">
        <ele>476.921997</ele>
        <time>2013-01-30T12:22:11Z</time>
      </trkpt>
      <trkpt lat="43.55334" lon="3.12466">
        <ele>479.653107</ele>
        <time>2013-01-30T12:22:22Z</time>
      </trkpt>
      <trkpt lat="43.55334" lon="3.12468">
        <ele>479.610901</ele>
        <time>2013-01-30T12:22:23Z</time>
      </trkpt>
      <trkpt lat="43.5535" lon="3.12534">
        <ele>483.164276</ele>
        <time>2013-01-30T12:22:55Z</time>
      </trkpt>
      <trkpt lat="43.55363" lon="3.12561">
        <ele>485.276306</ele>
        <time>2013-01-30T12:23:10Z</time>
      </trkpt>
      <trkpt lat="43.55386" lon="3.12579">
        <ele>487.186127</ele>
        <time>2013-01-30T12:23:25Z</time>
      </trkpt>
      <trkpt lat="43.55413" lon="3.12583">
        <ele>490.502197</ele>
        <time>2013-01-30T12:23:41Z</time>
      </trkpt>
      <trkpt lat="43.55426" lon="3.12584">
        <ele>491.014252</ele>
        <time>2013-01-30T12:23:49Z</time>
      </trkpt>
      <trkpt lat="43.55415" lon="3.12542">
        <ele>497.173889</ele>
        <time>2013-01-30T12:24:15Z</time>
      </trkpt>
      <trkpt lat="43.55414" lon="3.1251">
        <ele>500.407593</ele>
        <time>2013-01-30T12:24:30Z</time>
      </trkpt>
      <trkpt lat="43.55417" lon="3.12475">
        <ele>503.313599</ele>
        <time>2013-01-30T12:24:46Z</time>
      </trkpt>
      <trkpt lat="43.55422" lon="3.12449">
        <ele>506.012299</ele>
        <time>2013-01-30T12:24:59Z</time>
      </trkpt>
      <trkpt lat="43.55429" lon="3.12412">
        <ele>506.709564</ele>
        <time>2013-01-30T12:25:15Z</time>
      </trkpt>
      <trkpt lat="43.55446" lon="3.12385">
        <ele>508.857178</ele>
        <time>2013-01-30T12:25:31Z</time>
      </trkpt>
      <trkpt lat="43.55471" lon="3.12379">
        <ele>513.309021</ele>
        <time>2013-01-30T12:25:46Z</time>
      </trkpt>
      <trkpt lat="43.55477" lon="3.1238">
        <ele>514.127625</ele>
        <time>2013-01-30T12:25:50Z</time>
      </trkpt>
      <trkpt lat="43.55496" lon="3.12379">
        <ele>516.633728</ele>
        <time>2013-01-30T12:26:04Z</time>
      </trkpt>
      <trkpt lat="43.55517" lon="3.12354">
        <ele>517.830139</ele>
        <time>2013-01-30T12:26:21Z</time>
      </trkpt>
      <trkpt lat="43.55528" lon="3.12309">
        <ele>521.677368</ele>
        <time>2013-01-30T12:26:49Z</time>
      </trkpt>
      <trkpt lat="43.55529" lon="3.12276">
        <ele>524.665771</ele>
        <time>2013-01-30T12:27:08Z</time>
      </trkpt>
      <trkpt lat="43.5553" lon="3.12245">
        <ele>525.815979</ele>
        <time>2013-01-30T12:27:25Z</time>
      </trkpt>
      <trkpt lat="43.55541" lon="3.12219">
        <ele>527.172546</ele>
        <time>2013-01-30T12:27:42Z</time>
      </trkpt>
      <trkpt lat="43.55559" lon="3.12205">
        <ele>531.797974</ele>
        <time>2013-01-30T12:27:58Z</time>
      </trkpt>
      <trkpt lat="43.55582" lon="3.12187">
        <ele>535.03717</ele>
        <time>2013-01-30T12:28:17Z</time>
      </trkpt>
      <trkpt lat="43.55593" lon="3.12178">
        <ele>535.777649</ele>
        <time>2013-01-30T12:28:27Z</time>
      </trkpt>
      <trkpt lat="43.55604" lon="3.12171">
        <ele>537.106262</ele>
        <time>2013-01-30T12:28:35Z</time>
      </trkpt>
      <trkpt lat="43.55628" lon="3.1216">
        <ele>541.683777</ele>
        <time>2013-01-30T12:28:53Z</time>
      </trkpt>
      <trkpt lat="43.55649" lon="3.12148">
        <ele>544.890015</ele>
        <time>2013-01-30T12:29:08Z</time>
      </trkpt>
      <trkpt lat="43.55677" lon="3.12096">
        <ele>550.854065</ele>
        <time>2013-01-30T12:29:40Z</time>
      </trkpt>
      <trkpt lat="43.55685" lon="3.12062">
        <ele>554.40332</ele>
        <time>2013-01-30T12:29:58Z</time>
      </trkpt>
      <trkpt lat="43.5569" lon="3.12036">
        <ele>557.086243</ele>
        <time>2013-01-30T12:30:11Z</time>
      </trkpt>
      <trkpt lat="43.55694" lon="3.12016">
        <ele>559.119995</ele>
        <time>2013-01-30T12:30:23Z</time>
      </trkpt>
      <trkpt lat="43.55696" lon="3.12008">
        <ele>559.757507</ele>
        <time>2013-01-30T12:30:28Z</time>
      </trkpt>
      <trkpt lat="43.55702" lon="3.11976">
        <ele>561.1875</ele>
        <time>2013-01-30T12:30:47Z</time>
      </trkpt>
      <trkpt lat="43.55712" lon="3.11941">
        <ele>564.078064</ele>
        <time>2013-01-30T12:31:07Z</time>
      </trkpt>
      <trkpt lat="43.55716" lon="3.11927">
        <ele>564.721619</ele>
        <time>2013-01-30T12:31:15Z</time>
      </trkpt>
      <trkpt lat="43.55718" lon="3.1192">
        <ele>565.046692</ele>
        <time>2013-01-30T12:31:19Z</time>
      </trkpt>
      <trkpt lat="43.55727" lon="3.1189">
        <ele>566.834534</ele>
        <time>2013-01-30T12:31:37Z</time>
      </trkpt>
      <trkpt lat="43.55749" lon="3.11833">
        <ele>572.438782</ele>
        <time>2013-01-30T12:32:11Z</time>
      </trkpt>
      <trkpt lat="43.55764" lon="3.11804">
        <ele>577.559998</ele>
        <time>2013-01-30T12:32:30Z</time>
      </trkpt>
      <trkpt lat="43.55775" lon="3.11789">
        <ele>581.659973</ele>
        <time>2013-01-30T12:32:43Z</time>
      </trkpt>
      <trkpt lat="43.55779" lon="3.11779">
        <ele>583.065002</ele>
        <time>2013-01-30T12:32:50Z</time>
      </trkpt>
      <trkpt lat="43.55778" lon="3.11748">
        <ele>583.868347</ele>
        <time>2013-01-30T12:33:08Z</time>
      </trkpt>
      <trkpt lat="43.55787" lon="3.11733">
        <ele>589.701538</ele>
        <time>2013-01-30T12:33:34Z</time>
      </trkpt>
      <trkpt lat="43.55799" lon="3.11758">
        <ele>592.046875</ele>
        <time>2013-01-30T12:33:49Z</time>
      </trkpt>
      <trkpt lat="43.55805" lon="3.1179">
        <ele>596.331177</ele>
        <time>2013-01-30T12:34:06Z</time>
      </trkpt>
      <trkpt lat="43.558" lon="3.11817">
        <ele>596.151001</ele>
        <time>2013-01-30T12:34:23Z</time>
      </trkpt>
      <trkpt lat="43.55796" lon="3.11842">
        <ele>595.726746</ele>
        <time>2013-01-30T12:34:37Z</time>
      </trkpt>
      <trkpt lat="43.55793" lon="3.11865">
        <ele>596.110718</ele>
        <time>2013-01-30T12:34:51Z</time>
      </trkpt>
      <trkpt lat="43.55796" lon="3.11905">
        <ele>599.224426</ele>
        <time>2013-01-30T12:35:12Z</time>
      </trkpt>
      <trkpt lat="43.55797" lon="3.11909">
        <ele>599.456848</ele>
        <time>2013-01-30T12:35:14Z</time>
      </trkpt>
      <trkpt lat="43.55797" lon="3.11912">
        <ele>599.780579</ele>
        <time>2013-01-30T12:35:16Z</time>
      </trkpt>
      <trkpt lat="43.558" lon="3.11922">
        <ele>600.852478</ele>
        <time>2013-01-30T12:35:22Z</time>
      </trkpt>
      <trkpt lat="43.55817" lon="3.11963">
        <ele>606.127197</ele>
        <time>2013-01-30T12:35:50Z</time>
      </trkpt>
      <trkpt lat="43.5583" lon="3.11981">
        <ele>609.071045</ele>
        <time>2013-01-30T12:36:04Z</time>
      </trkpt>
      <trkpt lat="43.55849" lon="3.11995">
        <ele>612.772156</ele>
        <time>2013-01-30T12:36:18Z</time>
      </trkpt>
      <trkpt lat="43.55869" lon="3.12011">
        <ele>615.144104</ele>
        <time>2013-01-30T12:36:33Z</time>
      </trkpt>
      <trkpt lat="43.55888" lon="3.12021">
        <ele>617.957581</ele>
        <time>2013-01-30T12:36:47Z</time>
      </trkpt>
      <trkpt lat="43.559" lon="3.1202">
        <ele>620.711853</ele>
        <time>2013-01-30T12:41:48Z</time>
      </trkpt>
      <trkpt lat="43.55904" lon="3.12023">
        <ele>621.234131</ele>
        <time>2013-01-30T12:42:19Z</time>
      </trkpt>
      <trkpt lat="43.5592" lon="3.12037">
        <ele>624.1474</ele>
        <time>2013-01-30T12:42:27Z</time>
      </trkpt>
      <trkpt lat="43.55923" lon="3.12038">
        <ele>624.941833</ele>
        <time>2013-01-30T12:42:30Z</time>
      </trkpt>
      <trkpt lat="43.55924" lon="3.12033">
        <ele>625.31488</ele>
        <time>2013-01-30T12:42:35Z</time>
      </trkpt>
      <trkpt lat="43.55925" lon="3.12024">
        <ele>625.983154</ele>
        <time>2013-01-30T12:42:41Z</time>
      </trkpt>
      <trkpt lat="43.55938" lon="3.12024">
        <ele>629.148438</ele>
        <time>2013-01-30T12:42:52Z</time>
      </trkpt>
      <trkpt lat="43.55949" lon="3.12029">
        <ele>631.470581</ele>
        <time>2013-01-30T12:43:00Z</time>
      </trkpt>
      <trkpt lat="43.55958" lon="3.12037">
        <ele>632.871155</ele>
        <time>2013-01-30T12:43:10Z</time>
      </trkpt>
      <trkpt lat="43.55963" lon="3.12038">
        <ele>633.448608</ele>
        <time>2013-01-30T12:43:14Z</time>
      </trkpt>
      <trkpt lat="43.55965" lon="3.12039">
        <ele>633.707153</ele>
        <time>2013-01-30T12:43:16Z</time>
      </trkpt>
      <trkpt lat="43.5597" lon="3.12041">
        <ele>634.137085</ele>
        <time>2013-01-30T12:43:20Z</time>
      </trkpt>
      <trkpt lat="43.55988" lon="3.12057">
        <ele>634.481445</ele>
        <time>2013-01-30T12:43:44Z</time>
      </trkpt>
      <trkpt lat="43.55987" lon="3.12057">
        <ele>634.331787</ele>
        <time>2013-01-30T12:44:12Z</time>
      </trkpt>
      <trkpt lat="43.55992" lon="3.12061">
        <ele>634.515198</ele>
        <time>2013-01-30T12:44:43Z</time>
      </trkpt>
      <trkpt lat="43.55996" lon="3.12065">
        <ele>634.539856</ele>
        <time>2013-01-30T12:44:47Z</time>
      </trkpt>
      <trkpt lat="43.56003" lon="3.1207">
        <ele>634.589905</ele>
        <time>2013-01-30T12:44:51Z</time>
      </trkpt>
      <trkpt lat="43.56017" lon="3.12085">
        <ele>634.697021</ele>
        <time>2013-01-30T12:45:06Z</time>
      </trkpt>
      <trkpt lat="43.56022" lon="3.12096">
        <ele>634.176453</ele>
        <time>2013-01-30T12:45:09Z</time>
      </trkpt>
      <trkpt lat="43.56039" lon="3.12128">
        <ele>634.117188</ele>
        <time>2013-01-30T12:45:19Z</time>
      </trkpt>
      <trkpt lat="43.56041" lon="3.12132">
        <ele>634.186768</ele>
        <time>2013-01-30T12:45:21Z</time>
      </trkpt>
      <trkpt lat="43.56049" lon="3.12138">
        <ele>635.309204</ele>
        <time>2013-01-30T12:45:34Z</time>
      </trkpt>
      <trkpt lat="43.56057" lon="3.12136">
        <ele>636.837402</ele>
        <time>2013-01-30T12:45:44Z</time>
      </trkpt>
      <trkpt lat="43.56066" lon="3.12133">
        <ele>638.424011</ele>
        <time>2013-01-30T12:45:49Z</time>
      </trkpt>
      <trkpt lat="43.56074" lon="3.12134">
        <ele>639.792908</ele>
        <time>2013-01-30T12:45:54Z</time>
      </trkpt>
      <trkpt lat="43.56096" lon="3.12126">
        <ele>643.166504</ele>
        <time>2013-01-30T12:46:07Z</time>
      </trkpt>
      <trkpt lat="43.56116" lon="3.1212">
        <ele>643.093506</ele>
        <time>2013-01-30T12:46:18Z</time>
      </trkpt>
      <trkpt lat="43.56161" lon="3.12098">
        <ele>640.938782</ele>
        <time>2013-01-30T12:46:37Z</time>
      </trkpt>
      <trkpt lat="43.56164" lon="3.12097">
        <ele>640.567505</ele>
        <time>2013-01-30T12:46:38Z</time>
      </trkpt>
      <trkpt lat="43.56194" lon="3.1208">
        <ele>636.7677</ele>
        <time>2013-01-30T12:46:46Z</time>
      </trkpt>
      <trkpt lat="43.562" lon="3.12079">
        <ele>635.605347</ele>
        <time>2013-01-30T12:46:47Z</time>
      </trkpt>
      <trkpt lat="43.56211" lon="3.12077">
        <ele>633.682861</ele>
        <time>2013-01-30T12:46:49Z</time>
      </trkpt>
      <trkpt lat="43.56243" lon="3.12064">
        <ele>629.884949</ele>
        <time>2013-01-30T12:46:58Z</time>
      </trkpt>
      <trkpt lat="43.56249" lon="3.1206">
        <ele>629.541199</ele>
        <time>2013-01-30T12:47:20Z</time>
      </trkpt>
      <trkpt lat="43.56252" lon="3.1206">
        <ele>629.318298</ele>
        <time>2013-01-30T12:47:46Z</time>
      </trkpt>
      <trkpt lat="43.56256" lon="3.12068">
        <ele>627.35553</ele>
        <time>2013-01-30T12:47:50Z</time>
      </trkpt>
      <trkpt lat="43.56257" lon="3.12073">
        <ele>626.302917</ele>
        <time>2013-01-30T12:47:52Z</time>
      </trkpt>
      <trkpt lat="43.56259" lon="3.12093">
        <ele>623.356262</ele>
        <time>2013-01-30T12:48:05Z</time>
      </trkpt>
      <trkpt lat="43.56261" lon="3.121">
        <ele>622.16095</ele>
        <time>2013-01-30T12:48:11Z</time>
      </trkpt>
      <trkpt lat="43.56262" lon="3.12104">
        <ele>621.515015</ele>
        <time>2013-01-30T12:48:13Z</time>
      </trkpt>
      <trkpt lat="43.56264" lon="3.12108">
        <ele>620.616943</ele>
        <time>2013-01-30T12:48:17Z</time>
      </trkpt>
      <trkpt lat="43.56265" lon="3.12109">
        <ele>620.284363</ele>
        <time>2013-01-30T12:48:18Z</time>
      </trkpt>
      <trkpt lat="43.56282" lon="3.12117">
        <ele>615.047974</ele>
        <time>2013-01-30T12:48:25Z</time>
      </trkpt>
      <trkpt lat="43.56286" lon="3.12121">
        <ele>613.34314</ele>
        <time>2013-01-30T12:48:27Z</time>
      </trkpt>
      <trkpt lat="43.56302" lon="3.12126">
        <ele>607.814758</ele>
        <time>2013-01-30T12:48:32Z</time>
      </trkpt>
      <trkpt lat="43.56315" lon="3.12133">
        <ele>602.081299</ele>
        <time>2013-01-30T12:48:37Z</time>
      </trkpt>
      <trkpt lat="43.56319" lon="3.12139">
        <ele>599.583069</ele>
        <time>2013-01-30T12:48:39Z</time>
      </trkpt>
      <trkpt lat="43.5633" lon="3.12139">
        <ele>598.001099</ele>
        <time>2013-01-30T12:48:46Z</time>
      </trkpt>
      <trkpt lat="43.56337" lon="3.12142">
        <ele>595.951538</ele>
        <time>2013-01-30T12:48:50Z</time>
      </trkpt>
      <trkpt lat="43.56349" lon="3.12148">
        <ele>594.072021</ele>
        <time>2013-01-30T12:48:55Z</time>
      </trkpt>
      <trkpt lat="43.5636" lon="3.1215">
        <ele>592.010498</ele>
        <time>2013-01-30T12:48:59Z</time>
      </trkpt>
      <trkpt lat="43.56376" lon="3.12157">
        <ele>588.976807</ele>
        <time>2013-01-30T12:49:03Z</time>
      </trkpt>
      <trkpt lat="43.56397" lon="3.12169">
        <ele>583.105957</ele>
        <time>2013-01-30T12:49:09Z</time>
      </trkpt>
      <trkpt lat="43.56401" lon="3.12171">
        <ele>581.826904</ele>
        <time>2013-01-30T12:49:10Z</time>
      </trkpt>
      <trkpt lat="43.56411" lon="3.12178">
        <ele>578.755127</ele>
        <time>2013-01-30T12:49:12Z</time>
      </trkpt>
      <trkpt lat="43.56429" lon="3.12196">
        <ele>572.503174</ele>
        <time>2013-01-30T12:49:16Z</time>
      </trkpt>
      <trkpt lat="43.56433" lon="3.122">
        <ele>570.95575</ele>
        <time>2013-01-30T12:49:17Z</time>
      </trkpt>
      <trkpt lat="43.5644" lon="3.12208">
        <ele>568.262268</ele>
        <time>2013-01-30T12:49:19Z</time>
      </trkpt>
      <trkpt lat="43.56453" lon="3.1223">
        <ele>563.234497</ele>
        <time>2013-01-30T12:49:23Z</time>
      </trkpt>
      <trkpt lat="43.56461" lon="3.12245">
        <ele>560.850769</ele>
        <time>2013-01-30T12:49:24Z</time>
      </trkpt>
      <trkpt lat="43.56469" lon="3.12259">
        <ele>557.59845</ele>
        <time>2013-01-30T12:49:26Z</time>
      </trkpt>
      <trkpt lat="43.56474" lon="3.12267">
        <ele>555.016235</ele>
        <time>2013-01-30T12:49:27Z</time>
      </trkpt>
      <trkpt lat="43.56503" lon="3.12311">
        <ele>544.42926</ele>
        <time>2013-01-30T12:49:33Z</time>
      </trkpt>
      <trkpt lat="43.5652" lon="3.12334">
        <ele>540.618652</ele>
        <time>2013-01-30T12:49:37Z</time>
      </trkpt>
      <trkpt lat="43.5652" lon="3.12346">
        <ele>539.21637</ele>
        <time>2013-01-30T12:49:42Z</time>
      </trkpt>
      <trkpt lat="43.56521" lon="3.1235">
        <ele>538.625183</ele>
        <time>2013-01-30T12:49:43Z</time>
      </trkpt>
      <trkpt lat="43.56525" lon="3.12375">
        <ele>534.575684</ele>
        <time>2013-01-30T12:49:46Z</time>
      </trkpt>
      <trkpt lat="43.56529" lon="3.12417">
        <ele>528.657104</ele>
        <time>2013-01-30T12:49:52Z</time>
      </trkpt>
      <trkpt lat="43.56534" lon="3.1243">
        <ele>525.473145</ele>
        <time>2013-01-30T12:49:54Z</time>
      </trkpt>
      <trkpt lat="43.56536" lon="3.12439">
        <ele>523.812012</ele>
        <time>2013-01-30T12:49:55Z</time>
      </trkpt>
      <trkpt lat="43.56541" lon="3.12504">
        <ele>528.115662</ele>
        <time>2013-01-30T12:50:02Z</time>
      </trkpt>
      <trkpt lat="43.56554" lon="3.1256">
        <ele>525.338013</ele>
        <time>2013-01-30T12:50:08Z</time>
      </trkpt>
      <trkpt lat="43.56555" lon="3.12588">
        <ele>527.300049</ele>
        <time>2013-01-30T12:50:12Z</time>
      </trkpt>
      <trkpt lat="43.5657" lon="3.12643">
        <ele>527.840027</ele>
        <time>2013-01-30T12:50:21Z</time>
      </trkpt>
      <trkpt lat="43.56577" lon="3.12677">
        <ele>533.037476</ele>
        <time>2013-01-30T12:50:32Z</time>
      </trkpt>
      <trkpt lat="43.56584" lon="3.12705">
        <ele>536.635742</ele>
        <time>2013-01-30T12:50:43Z</time>
      </trkpt>
      <trkpt lat="43.56592" lon="3.1273">
        <ele>541.052002</ele>
        <time>2013-01-30T12:50:57Z</time>
      </trkpt>
      <trkpt lat="43.56608" lon="3.1276">
        <ele>543.530518</ele>
        <time>2013-01-30T12:51:14Z</time>
      </trkpt>
      <trkpt lat="43.56623" lon="3.12784">
        <ele>544.436646</ele>
        <time>2013-01-30T12:51:27Z</time>
      </trkpt>
      <trkpt lat="43.56625" lon="3.12787">
        <ele>544.681763</ele>
        <time>2013-01-30T12:51:29Z</time>
      </trkpt>
      <trkpt lat="43.5663" lon="3.12798">
        <ele>546.945374</ele>
        <time>2013-01-30T12:51:35Z</time>
      </trkpt>
      <trkpt lat="43.56652" lon="3.1282">
        <ele>550.343018</ele>
        <time>2013-01-30T12:51:50Z</time>
      </trkpt>
      <trkpt lat="43.5668" lon="3.12827">
        <ele>548.672974</ele>
        <time>2013-01-30T12:52:07Z</time>
      </trkpt>
      <trkpt lat="43.56683" lon="3.12836">
        <ele>549.370422</ele>
        <time>2013-01-30T12:52:13Z</time>
      </trkpt>
      <trkpt lat="43.56674" lon="3.12854">
        <ele>551.920105</ele>
        <time>2013-01-30T12:52:27Z</time>
      </trkpt>
      <trkpt lat="43.56672" lon="3.12868">
        <ele>553.650452</ele>
        <time>2013-01-30T12:52:33Z</time>
      </trkpt>
      <trkpt lat="43.56671" lon="3.12873">
        <ele>554.426514</ele>
        <time>2013-01-30T12:52:36Z</time>
      </trkpt>
      <trkpt lat="43.56664" lon="3.12903">
        <ele>557.369324</ele>
        <time>2013-01-30T12:52:50Z</time>
      </trkpt>
      <trkpt lat="43.56664" lon="3.12909">
        <ele>557.360413</ele>
        <time>2013-01-30T12:52:53Z</time>
      </trkpt>
      <trkpt lat="43.56661" lon="3.12931">
        <ele>557.620605</ele>
        <time>2013-01-30T12:53:02Z</time>
      </trkpt>
      <trkpt lat="43.56648" lon="3.12969">
        <ele>557.14563</ele>
        <time>2013-01-30T12:53:16Z</time>
      </trkpt>
      <trkpt lat="43.56641" lon="3.1298">
        <ele>556.549622</ele>
        <time>2013-01-30T12:53:29Z</time>
      </trkpt>
      <trkpt lat="43.56637" lon="3.12985">
        <ele>556.243774</ele>
        <time>2013-01-30T12:54:37Z</time>
      </trkpt>
      <trkpt lat="43.56636" lon="3.12986">
        <ele>556.146545</ele>
        <time>2013-01-30T12:54:52Z</time>
      </trkpt>
      <trkpt lat="43.5664" lon="3.13001">
        <ele>554.132813</ele>
        <time>2013-01-30T12:54:56Z</time>
      </trkpt>
      <trkpt lat="43.56645" lon="3.13016">
        <ele>552.539978</ele>
        <time>2013-01-30T12:54:58Z</time>
      </trkpt>
      <trkpt lat="43.56655" lon="3.13032">
        <ele>551.310608</ele>
        <time>2013-01-30T12:55:00Z</time>
      </trkpt>
      <trkpt lat="43.56697" lon="3.13046">
        <ele>552.120667</ele>
        <time>2013-01-30T12:55:13Z</time>
      </trkpt>
      <trkpt lat="43.56734" lon="3.13025">
        <ele>551.440674</ele>
        <time>2013-01-30T12:55:24Z</time>
      </trkpt>
      <trkpt lat="43.56761" lon="3.1302">
        <ele>550.680969</ele>
        <time>2013-01-30T12:55:31Z</time>
      </trkpt>
      <trkpt lat="43.56787" lon="3.1303">
        <ele>549.61084</ele>
        <time>2013-01-30T12:55:39Z</time>
      </trkpt>
      <trkpt lat="43.56782" lon="3.13084">
        <ele>553.258606</ele>
        <time>2013-01-30T12:55:51Z</time>
      </trkpt>
      <trkpt lat="43.56803" lon="3.13121">
        <ele>555.041809</ele>
        <time>2013-01-30T12:56:01Z</time>
      </trkpt>
      <trkpt lat="43.56829" lon="3.13147">
        <ele>551.393677</ele>
        <time>2013-01-30T12:56:10Z</time>
      </trkpt>
      <trkpt lat="43.56834" lon="3.13153">
        <ele>550.407532</ele>
        <time>2013-01-30T12:56:12Z</time>
      </trkpt>
      <trkpt lat="43.56857" lon="3.13168">
        <ele>546.256287</ele>
        <time>2013-01-30T12:56:18Z</time>
      </trkpt>
      <trkpt lat="43.56869" lon="3.1318">
        <ele>544.606995</ele>
        <time>2013-01-30T12:56:22Z</time>
      </trkpt>
      <trkpt lat="43.5689" lon="3.132">
        <ele>541.668823</ele>
        <time>2013-01-30T12:56:28Z</time>
      </trkpt>
      <trkpt lat="43.56917" lon="3.13221">
        <ele>533.466736</ele>
        <time>2013-01-30T12:56:34Z</time>
      </trkpt>
      <trkpt lat="43.5693" lon="3.1323">
        <ele>530.199585</ele>
        <time>2013-01-30T12:56:37Z</time>
      </trkpt>
      <trkpt lat="43.56955" lon="3.13216">
        <ele>529.169678</ele>
        <time>2013-01-30T12:56:44Z</time>
      </trkpt>
      <trkpt lat="43.56968" lon="3.13204">
        <ele>529.828064</ele>
        <time>2013-01-30T12:56:48Z</time>
      </trkpt>
      <trkpt lat="43.56976" lon="3.1318">
        <ele>530.762329</ele>
        <time>2013-01-30T12:56:58Z</time>
      </trkpt>
      <trkpt lat="43.56987" lon="3.13158">
        <ele>531.560852</ele>
        <time>2013-01-30T12:57:13Z</time>
      </trkpt>
      <trkpt lat="43.56989" lon="3.13159">
        <ele>531.428772</ele>
        <time>2013-01-30T12:57:20Z</time>
      </trkpt>
      <trkpt lat="43.57007" lon="3.13149">
        <ele>530.553772</ele>
        <time>2013-01-30T12:57:28Z</time>
      </trkpt>
      <trkpt lat="43.5701" lon="3.13138">
        <ele>530.725586</ele>
        <time>2013-01-30T12:57:31Z</time>
      </trkpt>
      <trkpt lat="43.57014" lon="3.13136">
        <ele>530.355103</ele>
        <time>2013-01-30T12:57:43Z</time>
      </trkpt>
      <trkpt lat="43.5702" lon="3.13139">
        <ele>529.824158</ele>
        <time>2013-01-30T12:57:48Z</time>
      </trkpt>
      <trkpt lat="43.57031" lon="3.13115">
        <ele>528.56311</ele>
        <time>2013-01-30T12:57:54Z</time>
      </trkpt>
      <trkpt lat="43.57041" lon="3.13097">
        <ele>524.803955</ele>
        <time>2013-01-30T12:57:58Z</time>
      </trkpt>
      <trkpt lat="43.57048" lon="3.13082">
        <ele>521.540894</ele>
        <time>2013-01-30T12:58:01Z</time>
      </trkpt>
      <trkpt lat="43.57064" lon="3.13049">
        <ele>515.634399</ele>
        <time>2013-01-30T12:58:08Z</time>
      </trkpt>
      <trkpt lat="43.57075" lon="3.13027">
        <ele>512.417908</ele>
        <time>2013-01-30T12:58:13Z</time>
      </trkpt>
      <trkpt lat="43.57094" lon="3.12984">
        <ele>503.658142</ele>
        <time>2013-01-30T12:58:20Z</time>
      </trkpt>
      <trkpt lat="43.57108" lon="3.12968">
        <ele>498.794525</ele>
        <time>2013-01-30T12:58:24Z</time>
      </trkpt>
      <trkpt lat="43.57113" lon="3.12961">
        <ele>497.892029</ele>
        <time>2013-01-30T12:58:26Z</time>
      </trkpt>
      <trkpt lat="43.57124" lon="3.12945">
        <ele>493.82605</ele>
        <time>2013-01-30T12:58:32Z</time>
      </trkpt>
      <trkpt lat="43.57135" lon="3.12931">
        <ele>490.345062</ele>
        <time>2013-01-30T12:58:35Z</time>
      </trkpt>
      <trkpt lat="43.57143" lon="3.12918">
        <ele>488.635834</ele>
        <time>2013-01-30T12:58:37Z</time>
      </trkpt>
      <trkpt lat="43.57162" lon="3.12916">
        <ele>486.130859</ele>
        <time>2013-01-30T12:58:44Z</time>
      </trkpt>
      <trkpt lat="43.57172" lon="3.129">
        <ele>484.837036</ele>
        <time>2013-01-30T12:58:50Z</time>
      </trkpt>
      <trkpt lat="43.57183" lon="3.12873">
        <ele>482.185913</ele>
        <time>2013-01-30T12:58:58Z</time>
      </trkpt>
      <trkpt lat="43.57186" lon="3.12867">
        <ele>481.466736</ele>
        <time>2013-01-30T12:59:00Z</time>
      </trkpt>
      <trkpt lat="43.57194" lon="3.12849">
        <ele>480.293762</ele>
        <time>2013-01-30T12:59:06Z</time>
      </trkpt>
      <trkpt lat="43.57195" lon="3.12843">
        <ele>480.135681</ele>
        <time>2013-01-30T12:59:09Z</time>
      </trkpt>
      <trkpt lat="43.57196" lon="3.12838">
        <ele>480.261353</ele>
        <time>2013-01-30T12:59:13Z</time>
      </trkpt>
      <trkpt lat="43.57207" lon="3.12791">
        <ele>476.602875</ele>
        <time>2013-01-30T12:59:25Z</time>
      </trkpt>
      <trkpt lat="43.5721" lon="3.12777">
        <ele>475.5914</ele>
        <time>2013-01-30T12:59:28Z</time>
      </trkpt>
      <trkpt lat="43.57217" lon="3.12778">
        <ele>472.993744</ele>
        <time>2013-01-30T12:59:37Z</time>
      </trkpt>
      <trkpt lat="43.57225" lon="3.12777">
        <ele>469.798737</ele>
        <time>2013-01-30T12:59:42Z</time>
      </trkpt>
      <trkpt lat="43.57228" lon="3.12756">
        <ele>467.501831</ele>
        <time>2013-01-30T12:59:53Z</time>
      </trkpt>
      <trkpt lat="43.5723" lon="3.1274">
        <ele>465.662109</ele>
        <time>2013-01-30T13:00:02Z</time>
      </trkpt>
      <trkpt lat="43.57232" lon="3.12723">
        <ele>464.000244</ele>
        <time>2013-01-30T13:00:06Z</time>
      </trkpt>
      <trkpt lat="43.57232" lon="3.12719">
        <ele>463.674469</ele>
        <time>2013-01-30T13:00:07Z</time>
      </trkpt>
      <trkpt lat="43.57233" lon="3.12701">
        <ele>461.659515</ele>
        <time>2013-01-30T13:00:12Z</time>
      </trkpt>
      <trkpt lat="43.57238" lon="3.12682">
        <ele>457.094238</ele>
        <time>2013-01-30T13:00:16Z</time>
      </trkpt>
      <trkpt lat="43.57251" lon="3.12641">
        <ele>448.367279</ele>
        <time>2013-01-30T13:00:22Z</time>
      </trkpt>
      <trkpt lat="43.57256" lon="3.12628">
        <ele>446.411041</ele>
        <time>2013-01-30T13:00:24Z</time>
      </trkpt>
      <trkpt lat="43.57259" lon="3.12622">
        <ele>444.851959</ele>
        <time>2013-01-30T13:00:25Z</time>
      </trkpt>
      <trkpt lat="43.57269" lon="3.126">
        <ele>439.813507</ele>
        <time>2013-01-30T13:00:28Z</time>
      </trkpt>
      <trkpt lat="43.57274" lon="3.12583">
        <ele>437.310791</ele>
        <time>2013-01-30T13:00:30Z</time>
      </trkpt>
      <trkpt lat="43.57287" lon="3.12555">
        <ele>433.484344</ele>
        <time>2013-01-30T13:00:34Z</time>
      </trkpt>
      <trkpt lat="43.57294" lon="3.12545">
        <ele>431.897369</ele>
        <time>2013-01-30T13:00:36Z</time>
      </trkpt>
      <trkpt lat="43.57312" lon="3.12517">
        <ele>427.646729</ele>
        <time>2013-01-30T13:00:41Z</time>
      </trkpt>
      <trkpt lat="43.57318" lon="3.12508">
        <ele>426.291016</ele>
        <time>2013-01-30T13:00:43Z</time>
      </trkpt>
      <trkpt lat="43.57327" lon="3.12498">
        <ele>424.064941</ele>
        <time>2013-01-30T13:00:45Z</time>
      </trkpt>
      <trkpt lat="43.5735" lon="3.12471">
        <ele>419.658752</ele>
        <time>2013-01-30T13:00:50Z</time>
      </trkpt>
      <trkpt lat="43.5736" lon="3.12458">
        <ele>417.799042</ele>
        <time>2013-01-30T13:00:52Z</time>
      </trkpt>
      <trkpt lat="43.57374" lon="3.12441">
        <ele>414.50647</ele>
        <time>2013-01-30T13:00:55Z</time>
      </trkpt>
      <trkpt lat="43.57382" lon="3.12426">
        <ele>413.706146</ele>
        <time>2013-01-30T13:00:57Z</time>
      </trkpt>
      <trkpt lat="43.57395" lon="3.12404">
        <ele>413.443909</ele>
        <time>2013-01-30T13:01:01Z</time>
      </trkpt>
      <trkpt lat="43.57414" lon="3.12362">
        <ele>413.110931</ele>
        <time>2013-01-30T13:08:17Z</time>
      </trkpt>
      <trkpt lat="43.57415" lon="3.12362">
        <ele>412.628357</ele>
        <time>2013-01-30T13:08:36Z</time>
      </trkpt>
      <trkpt lat="43.57417" lon="3.12362">
        <ele>411.811401</ele>
        <time>2013-01-30T13:08:55Z</time>
      </trkpt>
      <trkpt lat="43.5741" lon="3.12384">
        <ele>409.602753</ele>
        <time>2013-01-30T13:09:10Z</time>
      </trkpt>
      <trkpt lat="43.57351" lon="3.12527">
        <ele>405.376312</ele>
        <time>2013-01-30T13:09:36Z</time>
      </trkpt>
      <trkpt lat="43.57332" lon="3.12586">
        <ele>408.151093</ele>
        <time>2013-01-30T13:09:45Z</time>
      </trkpt>
      <trkpt lat="43.57336" lon="3.12691">
        <ele>409.562744</ele>
        <time>2013-01-30T13:10:00Z</time>
      </trkpt>
      <trkpt lat="43.57339" lon="3.12697">
        <ele>409.089325</ele>
        <time>2013-01-30T13:10:01Z</time>
      </trkpt>
      <trkpt lat="43.57342" lon="3.12704">
        <ele>408.473969</ele>
        <time>2013-01-30T13:10:02Z</time>
      </trkpt>
      <trkpt lat="43.57349" lon="3.12717">
        <ele>407.431427</ele>
        <time>2013-01-30T13:10:04Z</time>
      </trkpt>
      <trkpt lat="43.57354" lon="3.12722">
        <ele>407.519409</ele>
        <time>2013-01-30T13:10:05Z</time>
      </trkpt>
      <trkpt lat="43.57359" lon="3.12726">
        <ele>407.150909</ele>
        <time>2013-01-30T13:10:06Z</time>
      </trkpt>
      <trkpt lat="43.57365" lon="3.12728">
        <ele>406.452698</ele>
        <time>2013-01-30T13:10:07Z</time>
      </trkpt>
      <trkpt lat="43.57372" lon="3.12726">
        <ele>404.814178</ele>
        <time>2013-01-30T13:10:08Z</time>
      </trkpt>
      <trkpt lat="43.574" lon="3.1271">
        <ele>397.658386</ele>
        <time>2013-01-30T13:10:13Z</time>
      </trkpt>
      <trkpt lat="43.57406" lon="3.12708">
        <ele>397.299683</ele>
        <time>2013-01-30T13:10:14Z</time>
      </trkpt>
      <trkpt lat="43.57411" lon="3.12707">
        <ele>397.147186</ele>
        <time>2013-01-30T13:10:15Z</time>
      </trkpt>
      <trkpt lat="43.57491" lon="3.127">
        <ele>395.091614</ele>
        <time>2013-01-30T13:10:30Z</time>
      </trkpt>
      <trkpt lat="43.57513" lon="3.1272">
        <ele>396.198517</ele>
        <time>2013-01-30T13:10:38Z</time>
      </trkpt>
      <trkpt lat="43.57458" lon="3.12804">
        <ele>401.884949</ele>
        <time>2013-01-30T13:11:06Z</time>
      </trkpt>
      <trkpt lat="43.57441" lon="3.12824">
        <ele>403.583923</ele>
        <time>2013-01-30T13:11:17Z</time>
      </trkpt>
      <trkpt lat="43.57441" lon="3.12826">
        <ele>403.43103</ele>
        <time>2013-01-30T13:11:31Z</time>
      </trkpt>
      <trkpt lat="43.57441" lon="3.12826">
        <ele>403.394135</ele>
        <time>2013-01-30T13:11:50Z</time>
      </trkpt>
      <trkpt lat="43.57441" lon="3.12826">
        <ele>403.528687</ele>
        <time>2013-01-30T13:12:16Z</time>
      </trkpt>
      <trkpt lat="43.57441" lon="3.12825">
        <ele>403.580933</ele>
        <time>2013-01-30T13:13:04Z</time>
      </trkpt>
      <trkpt lat="43.57441" lon="3.12825">
        <ele>403.438141</ele>
        <time>2013-01-30T13:13:45Z</time>
      </trkpt>
      <trkpt lat="43.57442" lon="3.12827">
        <ele>403.170258</ele>
        <time>2013-01-30T13:14:19Z</time>
      </trkpt>
      <trkpt lat="43.57442" lon="3.12827">
        <ele>403.252594</ele>
        <time>2013-01-30T13:14:51Z</time>
      </trkpt>
      <trkpt lat="43.57441" lon="3.12824">
        <ele>403.548004</ele>
        <time>2013-01-30T13:15:25Z</time>
      </trkpt>
      <trkpt lat="43.57441" lon="3.12824">
        <ele>403.554535</ele>
        <time>2013-01-30T13:16:18Z</time>
      </trkpt>
      <trkpt lat="43.57441" lon="3.12824">
        <ele>403.602539</ele>
        <time>2013-01-30T13:16:45Z</time>
      </trkpt>
      <trkpt lat="43.57441" lon="3.12825">
        <ele>403.53241</ele>
        <time>2013-01-30T13:17:13Z</time>
      </trkpt>
      <trkpt lat="43.57441" lon="3.12827">
        <ele>403.408112</ele>
        <time>2013-01-30T13:17:31Z</time>
      </trkpt>
      <trkpt lat="43.57443" lon="3.12827">
        <ele>402.944122</ele>
        <time>2013-01-30T13:17:36Z</time>
      </trkpt>
      <trkpt lat="43.57448" lon="3.12826">
        <ele>401.759369</ele>
        <time>2013-01-30T13:17:38Z</time>
      </trkpt>
      <trkpt lat="43.57451" lon="3.12824">
        <ele>401.168701</ele>
        <time>2013-01-30T13:17:39Z</time>
      </trkpt>
      <trkpt lat="43.57455" lon="3.12821">
        <ele>400.756073</ele>
        <time>2013-01-30T13:17:40Z</time>
      </trkpt>
      <trkpt lat="43.57458" lon="3.12817">
        <ele>400.349487</ele>
        <time>2013-01-30T13:17:41Z</time>
      </trkpt>
      <trkpt lat="43.57461" lon="3.12816">
        <ele>399.806488</ele>
        <time>2013-01-30T13:17:42Z</time>
      </trkpt>
      <trkpt lat="43.57468" lon="3.12815">
        <ele>398.443268</ele>
        <time>2013-01-30T13:17:44Z</time>
      </trkpt>
      <trkpt lat="43.57471" lon="3.12815">
        <ele>397.644562</ele>
        <time>2013-01-30T13:17:45Z</time>
      </trkpt>
      <trkpt lat="43.57479" lon="3.12813">
        <ele>396.348236</ele>
        <time>2013-01-30T13:17:47Z</time>
      </trkpt>
      <trkpt lat="43.57488" lon="3.12809">
        <ele>394.649841</ele>
        <time>2013-01-30T13:17:49Z</time>
      </trkpt>
      <trkpt lat="43.57492" lon="3.12808">
        <ele>393.686829</ele>
        <time>2013-01-30T13:17:50Z</time>
      </trkpt>
      <trkpt lat="43.57499" lon="3.12803">
        <ele>392.537201</ele>
        <time>2013-01-30T13:17:52Z</time>
      </trkpt>
      <trkpt lat="43.57502" lon="3.128">
        <ele>392.204834</ele>
        <time>2013-01-30T13:17:53Z</time>
      </trkpt>
      <trkpt lat="43.57517" lon="3.12788">
        <ele>389.80188</ele>
        <time>2013-01-30T13:17:58Z</time>
      </trkpt>
      <trkpt lat="43.5752" lon="3.12783">
        <ele>389.63266</ele>
        <time>2013-01-30T13:17:59Z</time>
      </trkpt>
      <trkpt lat="43.57523" lon="3.12778">
        <ele>389.705933</ele>
        <time>2013-01-30T13:18:00Z</time>
      </trkpt>
      <trkpt lat="43.57545" lon="3.12731">
        <ele>387.930359</ele>
        <time>2013-01-30T13:18:11Z</time>
      </trkpt>
      <trkpt lat="43.57559" lon="3.12696">
        <ele>385.305206</ele>
        <time>2013-01-30T13:18:20Z</time>
      </trkpt>
      <trkpt lat="43.57566" lon="3.12687">
        <ele>383.914063</ele>
        <time>2013-01-30T13:18:23Z</time>
      </trkpt>
      <trkpt lat="43.57569" lon="3.12679">
        <ele>383.516449</ele>
        <time>2013-01-30T13:18:26Z</time>
      </trkpt>
      <trkpt lat="43.57574" lon="3.12668">
        <ele>383.095154</ele>
        <time>2013-01-30T13:18:30Z</time>
      </trkpt>
      <trkpt lat="43.57582" lon="3.12644">
        <ele>380.691528</ele>
        <time>2013-01-30T13:18:53Z</time>
      </trkpt>
      <trkpt lat="43.57585" lon="3.12641">
        <ele>379.840332</ele>
        <time>2013-01-30T13:19:07Z</time>
      </trkpt>
      <trkpt lat="43.57586" lon="3.12641">
        <ele>379.752075</ele>
        <time>2013-01-30T13:19:08Z</time>
      </trkpt>
      <trkpt lat="43.57593" lon="3.12639">
        <ele>378.855194</ele>
        <time>2013-01-30T13:19:13Z</time>
      </trkpt>
      <trkpt lat="43.57595" lon="3.12638">
        <ele>378.522614</ele>
        <time>2013-01-30T13:19:15Z</time>
      </trkpt>
      <trkpt lat="43.57599" lon="3.12639">
        <ele>378.315613</ele>
        <time>2013-01-30T13:19:20Z</time>
      </trkpt>
      <trkpt lat="43.57615" lon="3.12652">
        <ele>377.239288</ele>
        <time>2013-01-30T13:19:28Z</time>
      </trkpt>
      <trkpt lat="43.57622" lon="3.12657">
        <ele>375.712738</ele>
        <time>2013-01-30T13:19:31Z</time>
      </trkpt>
      <trkpt lat="43.57624" lon="3.12666">
        <ele>374.245514</ele>
        <time>2013-01-30T13:19:35Z</time>
      </trkpt>
      <trkpt lat="43.57632" lon="3.1268">
        <ele>371.044159</ele>
        <time>2013-01-30T13:19:41Z</time>
      </trkpt>
      <trkpt lat="43.57647" lon="3.12682">
        <ele>367.550842</ele>
        <time>2013-01-30T13:19:56Z</time>
      </trkpt>
      <trkpt lat="43.57652" lon="3.1268">
        <ele>366.744904</ele>
        <time>2013-01-30T13:19:59Z</time>
      </trkpt>
      <trkpt lat="43.57663" lon="3.12685">
        <ele>363.744598</ele>
        <time>2013-01-30T13:20:05Z</time>
      </trkpt>
      <trkpt lat="43.57677" lon="3.12693">
        <ele>359.180878</ele>
        <time>2013-01-30T13:20:12Z</time>
      </trkpt>
      <trkpt lat="43.57687" lon="3.12696">
        <ele>356.430939</ele>
        <time>2013-01-30T13:20:15Z</time>
      </trkpt>
      <trkpt lat="43.57704" lon="3.12715">
        <ele>349.939758</ele>
        <time>2013-01-30T13:20:23Z</time>
      </trkpt>
      <trkpt lat="43.57705" lon="3.12718">
        <ele>348.919312</ele>
        <time>2013-01-30T13:20:24Z</time>
      </trkpt>
      <trkpt lat="43.57708" lon="3.12731">
        <ele>345.048431</ele>
        <time>2013-01-30T13:20:28Z</time>
      </trkpt>
      <trkpt lat="43.5771" lon="3.12738">
        <ele>342.846252</ele>
        <time>2013-01-30T13:20:30Z</time>
      </trkpt>
      <trkpt lat="43.57722" lon="3.12754">
        <ele>337.460022</ele>
        <time>2013-01-30T13:20:35Z</time>
      </trkpt>
      <trkpt lat="43.57737" lon="3.12773">
        <ele>332.689423</ele>
        <time>2013-01-30T13:20:43Z</time>
      </trkpt>
      <trkpt lat="43.57744" lon="3.12785">
        <ele>329.455627</ele>
        <time>2013-01-30T13:20:50Z</time>
      </trkpt>
      <trkpt lat="43.57746" lon="3.12788">
        <ele>328.639618</ele>
        <time>2013-01-30T13:20:51Z</time>
      </trkpt>
      <trkpt lat="43.57755" lon="3.12796">
        <ele>325.276733</ele>
        <time>2013-01-30T13:20:56Z</time>
      </trkpt>
      <trkpt lat="43.57757" lon="3.12797">
        <ele>324.855286</ele>
        <time>2013-01-30T13:20:57Z</time>
      </trkpt>
      <trkpt lat="43.57784" lon="3.12799">
        <ele>320.997955</ele>
        <time>2013-01-30T13:21:07Z</time>
      </trkpt>
      <trkpt lat="43.57797" lon="3.12803">
        <ele>318.591583</ele>
        <time>2013-01-30T13:21:11Z</time>
      </trkpt>
      <trkpt lat="43.578" lon="3.12805">
        <ele>317.286652</ele>
        <time>2013-01-30T13:21:12Z</time>
      </trkpt>
      <trkpt lat="43.57803" lon="3.12806">
        <ele>315.915375</ele>
        <time>2013-01-30T13:21:13Z</time>
      </trkpt>
      <trkpt lat="43.57808" lon="3.12803">
        <ele>315.183441</ele>
        <time>2013-01-30T13:21:15Z</time>
      </trkpt>
      <trkpt lat="43.5783" lon="3.12809">
        <ele>307.970337</ele>
        <time>2013-01-30T13:21:22Z</time>
      </trkpt>
      <trkpt lat="43.57835" lon="3.12806">
        <ele>307.178131</ele>
        <time>2013-01-30T13:21:23Z</time>
      </trkpt>
      <trkpt lat="43.57844" lon="3.12802">
        <ele>305.223389</ele>
        <time>2013-01-30T13:21:25Z</time>
      </trkpt>
      <trkpt lat="43.57852" lon="3.12797">
        <ele>304.075348</ele>
        <time>2013-01-30T13:21:26Z</time>
      </trkpt>
      <trkpt lat="43.57877" lon="3.12783">
        <ele>299.843719</ele>
        <time>2013-01-30T13:21:30Z</time>
      </trkpt>
      <trkpt lat="43.57922" lon="3.12754">
        <ele>285.731567</ele>
        <time>2013-01-30T13:21:39Z</time>
      </trkpt>
      <trkpt lat="43.57933" lon="3.12748">
        <ele>283.098755</ele>
        <time>2013-01-30T13:21:42Z</time>
      </trkpt>
      <trkpt lat="43.57955" lon="3.12739">
        <ele>279.419983</ele>
        <time>2013-01-30T13:21:46Z</time>
      </trkpt>
      <trkpt lat="43.57968" lon="3.12737">
        <ele>277.538483</ele>
        <time>2013-01-30T13:21:48Z</time>
      </trkpt>
      <trkpt lat="43.57992" lon="3.12728">
        <ele>273.85437</ele>
        <time>2013-01-30T13:21:53Z</time>
      </trkpt>
      <trkpt lat="43.58026" lon="3.12712">
        <ele>267.095673</ele>
        <time>2013-01-30T13:22:04Z</time>
      </trkpt>
      <trkpt lat="43.5803" lon="3.12711">
        <ele>266.595825</ele>
        <time>2013-01-30T13:22:05Z</time>
      </trkpt>
      <trkpt lat="43.58064" lon="3.12694">
        <ele>262.739624</ele>
        <time>2013-01-30T13:22:12Z</time>
      </trkpt>
      <trkpt lat="43.58073" lon="3.12688">
        <ele>261.797913</ele>
        <time>2013-01-30T13:22:14Z</time>
      </trkpt>
      <trkpt lat="43.58082" lon="3.12683">
        <ele>261.259003</ele>
        <time>2013-01-30T13:22:16Z</time>
      </trkpt>
      <trkpt lat="43.58106" lon="3.12696">
        <ele>258.424072</ele>
        <time>2013-01-30T13:22:27Z</time>
      </trkpt>
      <trkpt lat="43.58104" lon="3.12711">
        <ele>256.860413</ele>
        <time>2013-01-30T13:22:33Z</time>
      </trkpt>
      <trkpt lat="43.58103" lon="3.12714">
        <ele>256.67981</ele>
        <time>2013-01-30T13:22:35Z</time>
      </trkpt>
      <trkpt lat="43.58103" lon="3.12715">
        <ele>256.513794</ele>
        <time>2013-01-30T13:22:37Z</time>
      </trkpt>
      <trkpt lat="43.58107" lon="3.12721">
        <ele>254.985199</ele>
        <time>2013-01-30T13:22:41Z</time>
      </trkpt>
      <trkpt lat="43.58116" lon="3.12735">
        <ele>249.126785</ele>
        <time>2013-01-30T13:22:52Z</time>
      </trkpt>
      <trkpt lat="43.5811" lon="3.12743">
        <ele>247.27272</ele>
        <time>2013-01-30T13:22:54Z</time>
      </trkpt>
      <trkpt lat="43.58098" lon="3.12755">
        <ele>245.218521</ele>
        <time>2013-01-30T13:22:57Z</time>
      </trkpt>
      <trkpt lat="43.58095" lon="3.12762">
        <ele>243.492615</ele>
        <time>2013-01-30T13:22:59Z</time>
      </trkpt>
      <trkpt lat="43.58098" lon="3.12765">
        <ele>241.638687</ele>
        <time>2013-01-30T13:23:01Z</time>
      </trkpt>
      <trkpt lat="43.58139" lon="3.1276">
        <ele>237.024994</ele>
        <time>2013-01-30T13:23:10Z</time>
      </trkpt>
      <trkpt lat="43.58143" lon="3.1276">
        <ele>236.6922</ele>
        <time>2013-01-30T13:23:11Z</time>
      </trkpt>
      <trkpt lat="43.58161" lon="3.12769">
        <ele>231.869293</ele>
        <time>2013-01-30T13:23:16Z</time>
      </trkpt>
      <trkpt lat="43.58166" lon="3.12774">
        <ele>230.295898</ele>
        <time>2013-01-30T13:23:18Z</time>
      </trkpt>
      <trkpt lat="43.58169" lon="3.12786">
        <ele>226.582596</ele>
        <time>2013-01-30T13:23:25Z</time>
      </trkpt>
      <trkpt lat="43.58173" lon="3.12785">
        <ele>226.301483</ele>
        <time>2013-01-30T13:24:12Z</time>
      </trkpt>
      <trkpt lat="43.58171" lon="3.12787">
        <ele>226.626495</ele>
        <time>2013-01-30T13:24:43Z</time>
      </trkpt>
      <trkpt lat="43.58187" lon="3.12795">
        <ele>227.400787</ele>
        <time>2013-01-30T13:25:02Z</time>
      </trkpt>
      <trkpt lat="43.582" lon="3.128">
        <ele>227.136444</ele>
        <time>2013-01-30T13:25:05Z</time>
      </trkpt>
      <trkpt lat="43.58223" lon="3.12821">
        <ele>227.59317</ele>
        <time>2013-01-30T13:25:10Z</time>
      </trkpt>
      <trkpt lat="43.58258" lon="3.12843">
        <ele>220.184097</ele>
        <time>2013-01-30T13:25:16Z</time>
      </trkpt>
      <trkpt lat="43.58288" lon="3.12868">
        <ele>217.773468</ele>
        <time>2013-01-30T13:25:21Z</time>
      </trkpt>
      <trkpt lat="43.58304" lon="3.12891">
        <ele>218.003006</ele>
        <time>2013-01-30T13:25:24Z</time>
      </trkpt>
      <trkpt lat="43.58319" lon="3.12908">
        <ele>213.541</ele>
        <time>2013-01-30T13:25:27Z</time>
      </trkpt>
      <trkpt lat="43.58329" lon="3.12927">
        <ele>211.078949</ele>
        <time>2013-01-30T13:25:30Z</time>
      </trkpt>
      <trkpt lat="43.58333" lon="3.12942">
        <ele>210.858887</ele>
        <time>2013-01-30T13:25:32Z</time>
      </trkpt>
      <trkpt lat="43.58334" lon="3.1295">
        <ele>210.873978</ele>
        <time>2013-01-30T13:25:33Z</time>
      </trkpt>
      <trkpt lat="43.58363" lon="3.13004">
        <ele>204.31958</ele>
        <time>2013-01-30T13:25:44Z</time>
      </trkpt>
      <trkpt lat="43.58387" lon="3.13024">
        <ele>200.596497</ele>
        <time>2013-01-30T13:25:49Z</time>
      </trkpt>
      <trkpt lat="43.58392" lon="3.13027">
        <ele>200.413101</ele>
        <time>2013-01-30T13:25:50Z</time>
      </trkpt>
      <trkpt lat="43.58407" lon="3.1303">
        <ele>200.444397</ele>
        <time>2013-01-30T13:26:20Z</time>
      </trkpt>
      <trkpt lat="43.58404" lon="3.13028">
        <ele>200.628799</ele>
        <time>2013-01-30T13:26:52Z</time>
      </trkpt>
      <trkpt lat="43.58405" lon="3.13029">
        <ele>200.620468</ele>
        <time>2013-01-30T13:27:23Z</time>
      </trkpt>
      <trkpt lat="43.58402" lon="3.13024">
        <ele>201.169952</ele>
        <time>2013-01-30T13:27:57Z</time>
      </trkpt>
      <trkpt lat="43.58408" lon="3.13029">
        <ele>200.594955</ele>
        <time>2013-01-30T13:28:17Z</time>
      </trkpt>
      <trkpt lat="43.58482" lon="3.12975">
        <ele>200.69957</ele>
        <time>2013-01-30T13:28:44Z</time>
      </trkpt>
      <trkpt lat="43.58511" lon="3.12935">
        <ele>199.85585</ele>
        <time>2013-01-30T13:28:56Z</time>
      </trkpt>
      <trkpt lat="43.58518" lon="3.12909">
        <ele>199.175156</ele>
        <time>2013-01-30T13:29:01Z</time>
      </trkpt>
      <trkpt lat="43.5852" lon="3.12904">
        <ele>199.316055</ele>
        <time>2013-01-30T13:29:02Z</time>
      </trkpt>
      <trkpt lat="43.5853" lon="3.12885">
        <ele>199.055496</ele>
        <time>2013-01-30T13:29:08Z</time>
      </trkpt>
      <trkpt lat="43.58546" lon="3.12863">
        <ele>196.868271</ele>
        <time>2013-01-30T13:29:14Z</time>
      </trkpt>
      <trkpt lat="43.58561" lon="3.12846">
        <ele>193.953751</ele>
        <time>2013-01-30T13:29:19Z</time>
      </trkpt>
      <trkpt lat="43.58562" lon="3.12841">
        <ele>193.916245</ele>
        <time>2013-01-30T13:29:20Z</time>
      </trkpt>
      <trkpt lat="43.58564" lon="3.12831">
        <ele>193.856247</ele>
        <time>2013-01-30T13:29:22Z</time>
      </trkpt>
      <trkpt lat="43.58567" lon="3.12829">
        <ele>193.972504</ele>
        <time>2013-01-30T13:29:25Z</time>
      </trkpt>
      <trkpt lat="43.58573" lon="3.12762">
        <ele>193.384171</ele>
        <time>2013-01-30T13:29:40Z</time>
      </trkpt>
      <trkpt lat="43.58576" lon="3.12747">
        <ele>193.512299</ele>
        <time>2013-01-30T13:29:43Z</time>
      </trkpt>
      <trkpt lat="43.58579" lon="3.12743">
        <ele>193.690247</ele>
        <time>2013-01-30T13:29:44Z</time>
      </trkpt>
      <trkpt lat="43.58582" lon="3.1274">
        <ele>193.94548</ele>
        <time>2013-01-30T13:29:45Z</time>
      </trkpt>
      <trkpt lat="43.58587" lon="3.12732">
        <ele>194.351227</ele>
        <time>2013-01-30T13:29:47Z</time>
      </trkpt>
      <trkpt lat="43.58587" lon="3.12722">
        <ele>194.532761</ele>
        <time>2013-01-30T13:29:49Z</time>
      </trkpt>
      <trkpt lat="43.58585" lon="3.12711">
        <ele>194.473999</ele>
        <time>2013-01-30T13:29:51Z</time>
      </trkpt>
      <trkpt lat="43.58575" lon="3.12676">
        <ele>192.978912</ele>
        <time>2013-01-30T13:29:57Z</time>
      </trkpt>
      <trkpt lat="43.58566" lon="3.12654">
        <ele>191.12822</ele>
        <time>2013-01-30T13:30:01Z</time>
      </trkpt>
      <trkpt lat="43.58561" lon="3.12634">
        <ele>190.095322</ele>
        <time>2013-01-30T13:30:04Z</time>
      </trkpt>
      <trkpt lat="43.58553" lon="3.12575">
        <ele>193.00444</ele>
        <time>2013-01-30T13:30:15Z</time>
      </trkpt>
      <trkpt lat="43.58553" lon="3.12528">
        <ele>192.492493</ele>
        <time>2013-01-30T13:30:23Z</time>
      </trkpt>
      <trkpt lat="43.58562" lon="3.12493">
        <ele>190.208496</ele>
        <time>2013-01-30T13:30:29Z</time>
      </trkpt>
      <trkpt lat="43.58575" lon="3.12471">
        <ele>190.429932</ele>
        <time>2013-01-30T13:30:33Z</time>
      </trkpt>
      <trkpt lat="43.58592" lon="3.12451">
        <ele>190.341187</ele>
        <time>2013-01-30T13:30:37Z</time>
      </trkpt>
      <trkpt lat="43.58644" lon="3.12375">
        <ele>189.843994</ele>
        <time>2013-01-30T13:30:53Z</time>
      </trkpt>
      <trkpt lat="43.58661" lon="3.12366">
        <ele>191.063995</ele>
        <time>2013-01-30T13:30:58Z</time>
      </trkpt>
      <trkpt lat="43.58666" lon="3.12362">
        <ele>191.401443</ele>
        <time>2013-01-30T13:31:00Z</time>
      </trkpt>
      <trkpt lat="43.58667" lon="3.12358">
        <ele>191.154694</ele>
        <time>2013-01-30T13:31:01Z</time>
      </trkpt>
      <trkpt lat="43.58666" lon="3.12355">
        <ele>190.861557</ele>
        <time>2013-01-30T13:31:02Z</time>
      </trkpt>
      <trkpt lat="43.58661" lon="3.12348">
        <ele>189.992249</ele>
        <time>2013-01-30T13:31:04Z</time>
      </trkpt>
      <trkpt lat="43.58659" lon="3.12343">
        <ele>189.675674</ele>
        <time>2013-01-30T13:31:05Z</time>
      </trkpt>
      <trkpt lat="43.58658" lon="3.12333">
        <ele>189.44371</ele>
        <time>2013-01-30T13:31:07Z</time>
      </trkpt>
      <trkpt lat="43.58658" lon="3.12328">
        <ele>189.377304</ele>
        <time>2013-01-30T13:31:08Z</time>
      </trkpt>
      <trkpt lat="43.58678" lon="3.12237">
        <ele>191.353088</ele>
        <time>2013-01-30T13:31:27Z</time>
      </trkpt>
      <trkpt lat="43.58681" lon="3.12231">
        <ele>191.960983</ele>
        <time>2013-01-30T13:32:08Z</time>
      </trkpt>
      <trkpt lat="43.58681" lon="3.12229">
        <ele>192.225647</ele>
        <time>2013-01-30T13:32:22Z</time>
      </trkpt>
      <trkpt lat="43.58682" lon="3.12227">
        <ele>192.368195</ele>
        <time>2013-01-30T13:32:23Z</time>
      </trkpt>
      <trkpt lat="43.58683" lon="3.12226">
        <ele>192.508881</ele>
        <time>2013-01-30T13:32:24Z</time>
      </trkpt>
      <trkpt lat="43.58688" lon="3.12217">
        <ele>193.313721</ele>
        <time>2013-01-30T13:32:28Z</time>
      </trkpt>
      <trkpt lat="43.5869" lon="3.12212">
        <ele>193.795471</ele>
        <time>2013-01-30T13:32:30Z</time>
      </trkpt>
      <trkpt lat="43.58691" lon="3.12209">
        <ele>193.960663</ele>
        <time>2013-01-30T13:32:31Z</time>
      </trkpt>
      <trkpt lat="43.58693" lon="3.12207">
        <ele>194.065933</ele>
        <time>2013-01-30T13:32:32Z</time>
      </trkpt>
      <trkpt lat="43.58694" lon="3.12205">
        <ele>194.217453</ele>
        <time>2013-01-30T13:32:33Z</time>
      </trkpt>
      <trkpt lat="43.58695" lon="3.12203">
        <ele>194.303894</ele>
        <time>2013-01-30T13:32:34Z</time>
      </trkpt>
      <trkpt lat="43.58698" lon="3.122">
        <ele>194.123306</ele>
        <time>2013-01-30T13:32:36Z</time>
      </trkpt>
      <trkpt lat="43.587" lon="3.12198">
        <ele>194.156998</ele>
        <time>2013-01-30T13:32:37Z</time>
      </trkpt>
      <trkpt lat="43.58702" lon="3.12196">
        <ele>194.170624</ele>
        <time>2013-01-30T13:32:38Z</time>
      </trkpt>
      <trkpt lat="43.58704" lon="3.12193">
        <ele>194.128098</ele>
        <time>2013-01-30T13:32:39Z</time>
      </trkpt>
      <trkpt lat="43.58706" lon="3.1219">
        <ele>194.192749</ele>
        <time>2013-01-30T13:32:40Z</time>
      </trkpt>
      <trkpt lat="43.58717" lon="3.12136">
        <ele>193.472565</ele>
        <time>2013-01-30T13:32:49Z</time>
      </trkpt>
      <trkpt lat="43.58717" lon="3.12128">
        <ele>193.604858</ele>
        <time>2013-01-30T13:32:50Z</time>
      </trkpt>
      <trkpt lat="43.58697" lon="3.12014">
        <ele>190.664993</ele>
        <time>2013-01-30T13:33:05Z</time>
      </trkpt>
      <trkpt lat="43.58694" lon="3.11998">
        <ele>191.283157</ele>
        <time>2013-01-30T13:33:08Z</time>
      </trkpt>
      <trkpt lat="43.58693" lon="3.11993">
        <ele>191.448318</ele>
        <time>2013-01-30T13:33:09Z</time>
      </trkpt>
      <trkpt lat="43.58664" lon="3.1191">
        <ele>194.14859</ele>
        <time>2013-01-30T13:33:24Z</time>
      </trkpt>
      <trkpt lat="43.58633" lon="3.11831">
        <ele>196.244125</ele>
        <time>2013-01-30T13:33:40Z</time>
      </trkpt>
      <trkpt lat="43.586" lon="3.11755">
        <ele>195.992325</ele>
        <time>2013-01-30T13:33:55Z</time>
      </trkpt>
      <trkpt lat="43.58572" lon="3.11666">
        <ele>193.645996</ele>
        <time>2013-01-30T13:34:11Z</time>
      </trkpt>
      <trkpt lat="43.58564" lon="3.11639">
        <ele>193.643753</ele>
        <time>2013-01-30T13:34:15Z</time>
      </trkpt>
      <trkpt lat="43.58531" lon="3.1151">
        <ele>194.086685</ele>
        <time>2013-01-30T13:34:35Z</time>
      </trkpt>
      <trkpt lat="43.58494" lon="3.11426">
        <ele>192.121033</ele>
        <time>2013-01-30T13:34:49Z</time>
      </trkpt>
      <trkpt lat="43.58475" lon="3.11392">
        <ele>190.555115</ele>
        <time>2013-01-30T13:34:55Z</time>
      </trkpt>
      <trkpt lat="43.5842" lon="3.11313">
        <ele>187.226517</ele>
        <time>2013-01-30T13:35:12Z</time>
      </trkpt>
      <trkpt lat="43.58406" lon="3.1129">
        <ele>187.075562</ele>
        <time>2013-01-30T13:35:17Z</time>
      </trkpt>
      <trkpt lat="43.58403" lon="3.11279">
        <ele>187.188019</ele>
        <time>2013-01-30T13:35:19Z</time>
      </trkpt>
      <trkpt lat="43.58403" lon="3.11273">
        <ele>187.249603</ele>
        <time>2013-01-30T13:35:20Z</time>
      </trkpt>
      <trkpt lat="43.58403" lon="3.11267">
        <ele>187.295807</ele>
        <time>2013-01-30T13:35:21Z</time>
      </trkpt>
      <trkpt lat="43.58403" lon="3.11261">
        <ele>187.315948</ele>
        <time>2013-01-30T13:35:22Z</time>
      </trkpt>
      <trkpt lat="43.58405" lon="3.11255">
        <ele>187.31395</ele>
        <time>2013-01-30T13:35:23Z</time>
      </trkpt>
      <trkpt lat="43.58441" lon="3.11136">
        <ele>187.510513</ele>
        <time>2013-01-30T13:35:43Z</time>
      </trkpt>
      <trkpt lat="43.5846" lon="3.11083">
        <ele>186.203751</ele>
        <time>2013-01-30T13:35:51Z</time>
      </trkpt>
      <trkpt lat="43.58461" lon="3.11076">
        <ele>186.066589</ele>
        <time>2013-01-30T13:35:52Z</time>
      </trkpt>
      <trkpt lat="43.58466" lon="3.11039">
        <ele>185.75</ele>
        <time>2013-01-30T13:35:57Z</time>
      </trkpt>
      <trkpt lat="43.58461" lon="3.10928">
        <ele>186.134903</ele>
        <time>2013-01-30T13:36:15Z</time>
      </trkpt>
      <trkpt lat="43.58439" lon="3.10838">
        <ele>189.005005</ele>
        <time>2013-01-30T13:36:32Z</time>
      </trkpt>
      <trkpt lat="43.58415" lon="3.10738">
        <ele>189.001236</ele>
        <time>2013-01-30T13:36:48Z</time>
      </trkpt>
      <trkpt lat="43.58413" lon="3.10731">
        <ele>189.001816</ele>
        <time>2013-01-30T13:36:49Z</time>
      </trkpt>
      <trkpt lat="43.58411" lon="3.10723">
        <ele>189.028778</ele>
        <time>2013-01-30T13:36:50Z</time>
      </trkpt>
      <trkpt lat="43.58407" lon="3.10716">
        <ele>189.067398</ele>
        <time>2013-01-30T13:36:51Z</time>
      </trkpt>
      <trkpt lat="43.58398" lon="3.10703">
        <ele>189.185745</ele>
        <time>2013-01-30T13:36:53Z</time>
      </trkpt>
      <trkpt lat="43.58392" lon="3.10698">
        <ele>189.183746</ele>
        <time>2013-01-30T13:36:54Z</time>
      </trkpt>
      <trkpt lat="43.58381" lon="3.10685">
        <ele>188.989761</ele>
        <time>2013-01-30T13:36:56Z</time>
      </trkpt>
      <trkpt lat="43.58376" lon="3.10678">
        <ele>188.922333</ele>
        <time>2013-01-30T13:36:57Z</time>
      </trkpt>
      <trkpt lat="43.58372" lon="3.10669">
        <ele>188.871078</ele>
        <time>2013-01-30T13:36:58Z</time>
      </trkpt>
      <trkpt lat="43.58365" lon="3.10652">
        <ele>188.820206</ele>
        <time>2013-01-30T13:37:00Z</time>
      </trkpt>
      <trkpt lat="43.58361" lon="3.10643">
        <ele>188.839569</ele>
        <time>2013-01-30T13:37:01Z</time>
      </trkpt>
      <trkpt lat="43.58356" lon="3.10636">
        <ele>188.897202</ele>
        <time>2013-01-30T13:37:02Z</time>
      </trkpt>
      <trkpt lat="43.58351" lon="3.1063">
        <ele>188.984116</ele>
        <time>2013-01-30T13:37:03Z</time>
      </trkpt>
      <trkpt lat="43.58346" lon="3.10624">
        <ele>189.095001</ele>
        <time>2013-01-30T13:37:04Z</time>
      </trkpt>
      <trkpt lat="43.58272" lon="3.10553">
        <ele>189.633743</ele>
        <time>2013-01-30T13:37:23Z</time>
      </trkpt>
      <trkpt lat="43.58268" lon="3.10551">
        <ele>189.690002</ele>
        <time>2013-01-30T13:37:24Z</time>
      </trkpt>
      <trkpt lat="43.58264" lon="3.1055">
        <ele>189.757507</ele>
        <time>2013-01-30T13:37:25Z</time>
      </trkpt>
      <trkpt lat="43.5826" lon="3.10549">
        <ele>189.816162</ele>
        <time>2013-01-30T13:37:26Z</time>
      </trkpt>
      <trkpt lat="43.58255" lon="3.10548">
        <ele>189.847275</ele>
        <time>2013-01-30T13:37:27Z</time>
      </trkpt>
      <trkpt lat="43.58247" lon="3.10549">
        <ele>189.9254</ele>
        <time>2013-01-30T13:37:29Z</time>
      </trkpt>
      <trkpt lat="43.58212" lon="3.1056">
        <ele>190.008118</ele>
        <time>2013-01-30T13:37:40Z</time>
      </trkpt>
      <trkpt lat="43.58177" lon="3.10554">
        <ele>190.355743</ele>
        <time>2013-01-30T13:37:52Z</time>
      </trkpt>
      <trkpt lat="43.58168" lon="3.10506">
        <ele>193.63562</ele>
        <time>2013-01-30T13:38:05Z</time>
      </trkpt>
      <trkpt lat="43.58164" lon="3.10445">
        <ele>197.061447</ele>
        <time>2013-01-30T13:38:22Z</time>
      </trkpt>
      <trkpt lat="43.58139" lon="3.10369">
        <ele>201.797073</ele>
        <time>2013-01-30T13:38:48Z</time>
      </trkpt>
      <trkpt lat="43.58135" lon="3.10367">
        <ele>202.097549</ele>
        <time>2013-01-30T13:38:50Z</time>
      </trkpt>
      <trkpt lat="43.5813" lon="3.10362">
        <ele>202.281555</ele>
        <time>2013-01-30T13:38:53Z</time>
      </trkpt>
      <trkpt lat="43.58127" lon="3.10357">
        <ele>202.203796</ele>
        <time>2013-01-30T13:38:55Z</time>
      </trkpt>
      <trkpt lat="43.58125" lon="3.10356">
        <ele>202.151596</ele>
        <time>2013-01-30T13:38:56Z</time>
      </trkpt>
      <trkpt lat="43.5812" lon="3.10359">
        <ele>202.319748</ele>
        <time>2013-01-30T13:38:58Z</time>
      </trkpt>
      <trkpt lat="43.58117" lon="3.10361">
        <ele>202.41745</ele>
        <time>2013-01-30T13:38:59Z</time>
      </trkpt>
      <trkpt lat="43.58115" lon="3.10362">
        <ele>202.483994</ele>
        <time>2013-01-30T13:39:00Z</time>
      </trkpt>
      <trkpt lat="43.58112" lon="3.10362">
        <ele>202.535355</ele>
        <time>2013-01-30T13:39:01Z</time>
      </trkpt>
      <trkpt lat="43.58107" lon="3.10361">
        <ele>202.510681</ele>
        <time>2013-01-30T13:39:03Z</time>
      </trkpt>
      <trkpt lat="43.58102" lon="3.10358">
        <ele>202.243408</ele>
        <time>2013-01-30T13:39:05Z</time>
      </trkpt>
      <trkpt lat="43.58071" lon="3.10332">
        <ele>200.645004</ele>
        <time>2013-01-30T13:39:16Z</time>
      </trkpt>
      <trkpt lat="43.58026" lon="3.10297">
        <ele>203.289993</ele>
        <time>2013-01-30T13:39:32Z</time>
      </trkpt>
      <trkpt lat="43.58005" lon="3.10247">
        <ele>201.518097</ele>
        <time>2013-01-30T13:39:44Z</time>
      </trkpt>
      <trkpt lat="43.57976" lon="3.10247">
        <ele>207.742584</ele>
        <time>2013-01-30T13:39:54Z</time>
      </trkpt>
      <trkpt lat="43.57934" lon="3.10264">
        <ele>216.838837</ele>
        <time>2013-01-30T13:40:16Z</time>
      </trkpt>
      <trkpt lat="43.57909" lon="3.10268">
        <ele>220.636581</ele>
        <time>2013-01-30T13:40:29Z</time>
      </trkpt>
      <trkpt lat="43.57879" lon="3.10263">
        <ele>224.626648</ele>
        <time>2013-01-30T13:40:44Z</time>
      </trkpt>
      <trkpt lat="43.57846" lon="3.10225">
        <ele>220.921997</ele>
        <time>2013-01-30T13:40:57Z</time>
      </trkpt>
      <trkpt lat="43.57807" lon="3.10193">
        <ele>215.349472</ele>
        <time>2013-01-30T13:41:09Z</time>
      </trkpt>
      <trkpt lat="43.57739" lon="3.10201">
        <ele>221.229401</ele>
        <time>2013-01-30T13:41:26Z</time>
      </trkpt>
      <trkpt lat="43.57717" lon="3.10203">
        <ele>223.854401</ele>
        <time>2013-01-30T13:41:31Z</time>
      </trkpt>
      <trkpt lat="43.57685" lon="3.10208">
        <ele>229.401978</ele>
        <time>2013-01-30T13:41:43Z</time>
      </trkpt>
      <trkpt lat="43.57648" lon="3.10211">
        <ele>232.789063</ele>
        <time>2013-01-30T13:41:58Z</time>
      </trkpt>
      <trkpt lat="43.57626" lon="3.1023">
        <ele>232.924347</ele>
        <time>2013-01-30T13:42:09Z</time>
      </trkpt>
      <trkpt lat="43.57597" lon="3.10302">
        <ele>237.886887</ele>
        <time>2013-01-30T13:42:35Z</time>
      </trkpt>
      <trkpt lat="43.57571" lon="3.10345">
        <ele>240.180923</ele>
        <time>2013-01-30T13:42:50Z</time>
      </trkpt>
      <trkpt lat="43.57545" lon="3.10375">
        <ele>238.922089</ele>
        <time>2013-01-30T13:43:03Z</time>
      </trkpt>
      <trkpt lat="43.57527" lon="3.10409">
        <ele>242.248917</ele>
        <time>2013-01-30T13:43:14Z</time>
      </trkpt>
      <trkpt lat="43.57496" lon="3.10429">
        <ele>237.803101</ele>
        <time>2013-01-30T13:43:26Z</time>
      </trkpt>
      <trkpt lat="43.57443" lon="3.10431">
        <ele>241.963516</ele>
        <time>2013-01-30T13:43:52Z</time>
      </trkpt>
      <trkpt lat="43.57408" lon="3.10436">
        <ele>246.04657</ele>
        <time>2013-01-30T13:44:07Z</time>
      </trkpt>
      <trkpt lat="43.5738" lon="3.10436">
        <ele>247.183884</ele>
        <time>2013-01-30T13:44:20Z</time>
      </trkpt>
      <trkpt lat="43.5736" lon="3.10436">
        <ele>248.093994</ele>
        <time>2013-01-30T13:44:30Z</time>
      </trkpt>
      <trkpt lat="43.57336" lon="3.10434">
        <ele>250.052902</ele>
        <time>2013-01-30T13:44:43Z</time>
      </trkpt>
      <trkpt lat="43.57279" lon="3.1042">
        <ele>256.728302</ele>
        <time>2013-01-30T13:45:10Z</time>
      </trkpt>
      <trkpt lat="43.57244" lon="3.10407">
        <ele>263.231781</ele>
        <time>2013-01-30T13:45:26Z</time>
      </trkpt>
      <trkpt lat="43.57223" lon="3.10402">
        <ele>266.404236</ele>
        <time>2013-01-30T13:45:39Z</time>
      </trkpt>
      <trkpt lat="43.57218" lon="3.10401">
        <ele>267.011017</ele>
        <time>2013-01-30T13:45:42Z</time>
      </trkpt>
      <trkpt lat="43.57194" lon="3.10398">
        <ele>269.70639</ele>
        <time>2013-01-30T13:45:57Z</time>
      </trkpt>
      <trkpt lat="43.57152" lon="3.10409">
        <ele>274.652344</ele>
        <time>2013-01-30T13:46:24Z</time>
      </trkpt>
      <trkpt lat="43.57135" lon="3.10425">
        <ele>274.015015</ele>
        <time>2013-01-30T13:46:38Z</time>
      </trkpt>
      <trkpt lat="43.5713" lon="3.10432">
        <ele>275.282867</ele>
        <time>2013-01-30T13:46:44Z</time>
      </trkpt>
      <trkpt lat="43.57116" lon="3.10451">
        <ele>277.240326</ele>
        <time>2013-01-30T13:46:57Z</time>
      </trkpt>
      <trkpt lat="43.57095" lon="3.10461">
        <ele>278.72995</ele>
        <time>2013-01-30T13:47:11Z</time>
      </trkpt>
      <trkpt lat="43.5706" lon="3.10451">
        <ele>285.302277</ele>
        <time>2013-01-30T13:47:37Z</time>
      </trkpt>
      <trkpt lat="43.5704" lon="3.10457">
        <ele>287.017914</ele>
        <time>2013-01-30T13:47:51Z</time>
      </trkpt>
      <trkpt lat="43.57026" lon="3.10462">
        <ele>287.626068</ele>
        <time>2013-01-30T13:48:01Z</time>
      </trkpt>
      <trkpt lat="43.57006" lon="3.10478">
        <ele>284.209991</ele>
        <time>2013-01-30T13:48:17Z</time>
      </trkpt>
      <trkpt lat="43.56982" lon="3.1048">
        <ele>287.079742</ele>
        <time>2013-01-30T13:48:34Z</time>
      </trkpt>
      <trkpt lat="43.56975" lon="3.10482">
        <ele>287.357086</ele>
        <time>2013-01-30T13:48:40Z</time>
      </trkpt>
      <trkpt lat="43.5696" lon="3.10494">
        <ele>289.861298</ele>
        <time>2013-01-30T13:48:54Z</time>
      </trkpt>
      <trkpt lat="43.56955" lon="3.10497">
        <ele>290.342377</ele>
        <time>2013-01-30T13:48:58Z</time>
      </trkpt>
      <trkpt lat="43.56929" lon="3.10502">
        <ele>293.095398</ele>
        <time>2013-01-30T13:49:14Z</time>
      </trkpt>
      <trkpt lat="43.56904" lon="3.10514">
        <ele>294.985809</ele>
        <time>2013-01-30T13:49:26Z</time>
      </trkpt>
      <trkpt lat="43.56846" lon="3.10572">
        <ele>298.278839</ele>
        <time>2013-01-30T13:49:57Z</time>
      </trkpt>
      <trkpt lat="43.56821" lon="3.10591">
        <ele>298.085449</ele>
        <time>2013-01-30T13:50:11Z</time>
      </trkpt>
      <trkpt lat="43.56792" lon="3.10609">
        <ele>300.861145</ele>
        <time>2013-01-30T13:50:24Z</time>
      </trkpt>
      <trkpt lat="43.56759" lon="3.10647">
        <ele>303.995789</ele>
        <time>2013-01-30T13:50:42Z</time>
      </trkpt>
      <trkpt lat="43.56743" lon="3.10686">
        <ele>306.88269</ele>
        <time>2013-01-30T13:50:57Z</time>
      </trkpt>
      <trkpt lat="43.56713" lon="3.10762">
        <ele>317.389679</ele>
        <time>2013-01-30T13:51:28Z</time>
      </trkpt>
      <trkpt lat="43.56699" lon="3.10792">
        <ele>320.500397</ele>
        <time>2013-01-30T13:51:41Z</time>
      </trkpt>
      <trkpt lat="43.56684" lon="3.1083">
        <ele>319.850586</ele>
        <time>2013-01-30T13:51:57Z</time>
      </trkpt>
      <trkpt lat="43.5668" lon="3.10869">
        <ele>321.323425</ele>
        <time>2013-01-30T13:52:10Z</time>
      </trkpt>
      <trkpt lat="43.56682" lon="3.10879">
        <ele>321.662262</ele>
        <time>2013-01-30T13:52:13Z</time>
      </trkpt>
      <trkpt lat="43.56665" lon="3.10847">
        <ele>327.726563</ele>
        <time>2013-01-30T13:52:36Z</time>
      </trkpt>
      <trkpt lat="43.56675" lon="3.10811">
        <ele>327.350494</ele>
        <time>2013-01-30T13:52:52Z</time>
      </trkpt>
      <trkpt lat="43.5668" lon="3.1078">
        <ele>327.95462</ele>
        <time>2013-01-30T13:53:07Z</time>
      </trkpt>
      <trkpt lat="43.56686" lon="3.10753">
        <ele>326.294189</ele>
        <time>2013-01-30T13:53:21Z</time>
      </trkpt>
      <trkpt lat="43.56698" lon="3.10723">
        <ele>323.297607</ele>
        <time>2013-01-30T13:53:36Z</time>
      </trkpt>
      <trkpt lat="43.56688" lon="3.10705">
        <ele>324.201202</ele>
        <time>2013-01-30T13:53:48Z</time>
      </trkpt>
      <trkpt lat="43.56663" lon="3.10693">
        <ele>333.999207</ele>
        <time>2013-01-30T13:54:06Z</time>
      </trkpt>
      <trkpt lat="43.56645" lon="3.1068">
        <ele>338.538116</ele>
        <time>2013-01-30T13:54:20Z</time>
      </trkpt>
      <trkpt lat="43.56631" lon="3.10662">
        <ele>340.098755</ele>
        <time>2013-01-30T13:54:32Z</time>
      </trkpt>
      <trkpt lat="43.56619" lon="3.1064">
        <ele>342.467041</ele>
        <time>2013-01-30T13:54:46Z</time>
      </trkpt>
      <trkpt lat="43.56593" lon="3.10607">
        <ele>346.13678</ele>
        <time>2013-01-30T13:55:12Z</time>
      </trkpt>
      <trkpt lat="43.56576" lon="3.10603">
        <ele>353.156769</ele>
        <time>2013-01-30T13:55:26Z</time>
      </trkpt>
      <trkpt lat="43.56571" lon="3.10597">
        <ele>354.156128</ele>
        <time>2013-01-30T13:55:45Z</time>
      </trkpt>
      <trkpt lat="43.56567" lon="3.10593">
        <ele>355.227203</ele>
        <time>2013-01-30T13:55:48Z</time>
      </trkpt>
      <trkpt lat="43.56553" lon="3.10563">
        <ele>355.308472</ele>
        <time>2013-01-30T13:56:04Z</time>
      </trkpt>
      <trkpt lat="43.56513" lon="3.1051">
        <ele>363.201752</ele>
        <time>2013-01-30T13:56:37Z</time>
      </trkpt>
      <trkpt lat="43.56518" lon="3.1049">
        <ele>360.241608</ele>
        <time>2013-01-30T13:56:47Z</time>
      </trkpt>
      <trkpt lat="43.56536" lon="3.10474">
        <ele>357.884491</ele>
        <time>2013-01-30T13:57:01Z</time>
      </trkpt>
      <trkpt lat="43.56545" lon="3.10451">
        <ele>365.834473</ele>
        <time>2013-01-30T13:57:13Z</time>
      </trkpt>
      <trkpt lat="43.5655" lon="3.10448">
        <ele>366.616119</ele>
        <time>2013-01-30T13:57:17Z</time>
      </trkpt>
      <trkpt lat="43.56558" lon="3.1045">
        <ele>366.109558</ele>
        <time>2013-01-30T13:57:24Z</time>
      </trkpt>
      <trkpt lat="43.56566" lon="3.10462">
        <ele>363.228455</ele>
        <time>2013-01-30T13:57:31Z</time>
      </trkpt>
      <trkpt lat="43.56585" lon="3.10483">
        <ele>359.246887</ele>
        <time>2013-01-30T13:57:47Z</time>
      </trkpt>
      <trkpt lat="43.56612" lon="3.10496">
        <ele>358.532593</ele>
        <time>2013-01-30T13:58:05Z</time>
      </trkpt>
      <trkpt lat="43.56635" lon="3.10497">
        <ele>361.830872</ele>
        <time>2013-01-30T13:58:20Z</time>
      </trkpt>
      <trkpt lat="43.5667" lon="3.10507">
        <ele>357.915588</ele>
        <time>2013-01-30T13:58:44Z</time>
      </trkpt>
      <trkpt lat="43.56688" lon="3.10487">
        <ele>364.783661</ele>
        <time>2013-01-30T13:59:00Z</time>
      </trkpt>
      <trkpt lat="43.56689" lon="3.10483">
        <ele>366.184082</ele>
        <time>2013-01-30T13:59:02Z</time>
      </trkpt>
      <trkpt lat="43.5669" lon="3.10473">
        <ele>368.320007</ele>
        <time>2013-01-30T13:59:07Z</time>
      </trkpt>
      <trkpt lat="43.56692" lon="3.10441">
        <ele>372.434998</ele>
        <time>2013-01-30T13:59:23Z</time>
      </trkpt>
      <trkpt lat="43.56693" lon="3.10368">
        <ele>381.802399</ele>
        <time>2013-01-30T13:59:58Z</time>
      </trkpt>
      <trkpt lat="43.56688" lon="3.10332">
        <ele>386.108643</ele>
        <time>2013-01-30T14:00:14Z</time>
      </trkpt>
      <trkpt lat="43.56686" lon="3.10328">
        <ele>386.820648</ele>
        <time>2013-01-30T14:00:16Z</time>
      </trkpt>
      <trkpt lat="43.56678" lon="3.1029">
        <ele>391.172241</ele>
        <time>2013-01-30T14:00:34Z</time>
      </trkpt>
      <trkpt lat="43.56676" lon="3.10254">
        <ele>396.010162</ele>
        <time>2013-01-30T14:00:51Z</time>
      </trkpt>
      <trkpt lat="43.5672" lon="3.1024">
        <ele>388.429688</ele>
        <time>2013-01-30T14:01:20Z</time>
      </trkpt>
      <trkpt lat="43.56751" lon="3.10242">
        <ele>388.744232</ele>
        <time>2013-01-30T14:01:37Z</time>
      </trkpt>
      <trkpt lat="43.56781" lon="3.10252">
        <ele>388.424927</ele>
        <time>2013-01-30T14:01:52Z</time>
      </trkpt>
      <trkpt lat="43.56805" lon="3.10267">
        <ele>384.554077</ele>
        <time>2013-01-30T14:02:04Z</time>
      </trkpt>
      <trkpt lat="43.56836" lon="3.1026">
        <ele>384.790619</ele>
        <time>2013-01-30T14:02:18Z</time>
      </trkpt>
      <trkpt lat="43.56864" lon="3.10175">
        <ele>402.314667</ele>
        <time>2013-01-30T14:02:48Z</time>
      </trkpt>
      <trkpt lat="43.56875" lon="3.10147">
        <ele>408.98111</ele>
        <time>2013-01-30T14:03:03Z</time>
      </trkpt>
      <trkpt lat="43.56889" lon="3.10126">
        <ele>414.017944</ele>
        <time>2013-01-30T14:03:18Z</time>
      </trkpt>
      <trkpt lat="43.56889" lon="3.10119">
        <ele>416.758636</ele>
        <time>2013-01-30T14:03:22Z</time>
      </trkpt>
      <trkpt lat="43.56886" lon="3.10117">
        <ele>417.864868</ele>
        <time>2013-01-30T14:03:24Z</time>
      </trkpt>
      <trkpt lat="43.56857" lon="3.10156">
        <ele>411.834839</ele>
        <time>2013-01-30T14:03:52Z</time>
      </trkpt>
      <trkpt lat="43.56844" lon="3.10177">
        <ele>409.064728</ele>
        <time>2013-01-30T14:04:06Z</time>
      </trkpt>
      <trkpt lat="43.56829" lon="3.10199">
        <ele>407.297791</ele>
        <time>2013-01-30T14:04:22Z</time>
      </trkpt>
      <trkpt lat="43.56811" lon="3.10207">
        <ele>406.034363</ele>
        <time>2013-01-30T14:04:37Z</time>
      </trkpt>
      <trkpt lat="43.56789" lon="3.10189">
        <ele>414.388794</ele>
        <time>2013-01-30T14:04:55Z</time>
      </trkpt>
      <trkpt lat="43.56745" lon="3.10167">
        <ele>421.927582</ele>
        <time>2013-01-30T14:05:28Z</time>
      </trkpt>
      <trkpt lat="43.56725" lon="3.10162">
        <ele>423.488098</ele>
        <time>2013-01-30T14:05:42Z</time>
      </trkpt>
      <trkpt lat="43.56694" lon="3.10155">
        <ele>425.800385</ele>
        <time>2013-01-30T14:06:00Z</time>
      </trkpt>
      <trkpt lat="43.56668" lon="3.10147">
        <ele>431.886658</ele>
        <time>2013-01-30T14:06:16Z</time>
      </trkpt>
      <trkpt lat="43.56658" lon="3.10141">
        <ele>435.082275</ele>
        <time>2013-01-30T14:06:23Z</time>
      </trkpt>
      <trkpt lat="43.56619" lon="3.1016">
        <ele>441.585205</ele>
        <time>2013-01-30T14:06:55Z</time>
      </trkpt>
      <trkpt lat="43.56613" lon="3.10182">
        <ele>439.734894</ele>
        <time>2013-01-30T14:07:09Z</time>
      </trkpt>
      <trkpt lat="43.56608" lon="3.10194">
        <ele>440.528198</ele>
        <time>2013-01-30T14:07:17Z</time>
      </trkpt>
      <trkpt lat="43.56606" lon="3.10205">
        <ele>440.231445</ele>
        <time>2013-01-30T14:07:23Z</time>
      </trkpt>
      <trkpt lat="43.56604" lon="3.10212">
        <ele>440.492828</ele>
        <time>2013-01-30T14:07:27Z</time>
      </trkpt>
      <trkpt lat="43.56598" lon="3.10264">
        <ele>435.914612</ele>
        <time>2013-01-30T14:07:55Z</time>
      </trkpt>
      <trkpt lat="43.56596" lon="3.10279">
        <ele>433.915009</ele>
        <time>2013-01-30T14:08:04Z</time>
      </trkpt>
      <trkpt lat="43.56594" lon="3.10285">
        <ele>433.158203</ele>
        <time>2013-01-30T14:08:20Z</time>
      </trkpt>
      <trkpt lat="43.56592" lon="3.10284">
        <ele>433.318085</ele>
        <time>2013-01-30T14:08:47Z</time>
      </trkpt>
      <trkpt lat="43.56593" lon="3.10282">
        <ele>433.687317</ele>
        <time>2013-01-30T14:09:23Z</time>
      </trkpt>
      <trkpt lat="43.56593" lon="3.10283">
        <ele>433.471161</ele>
        <time>2013-01-30T14:10:18Z</time>
      </trkpt>
      <trkpt lat="43.56593" lon="3.10283">
        <ele>433.578247</ele>
        <time>2013-01-30T14:10:47Z</time>
      </trkpt>
      <trkpt lat="43.56594" lon="3.10283">
        <ele>433.389709</ele>
        <time>2013-01-30T14:11:15Z</time>
      </trkpt>
      <trkpt lat="43.56593" lon="3.10285">
        <ele>433.268799</ele>
        <time>2013-01-30T14:11:17Z</time>
      </trkpt>
      <trkpt lat="43.5658" lon="3.10282">
        <ele>434.507477</ele>
        <time>2013-01-30T14:11:26Z</time>
      </trkpt>
      <trkpt lat="43.56534" lon="3.10238">
        <ele>454.931396</ele>
        <time>2013-01-30T14:11:59Z</time>
      </trkpt>
      <trkpt lat="43.56508" lon="3.10255">
        <ele>452.351349</ele>
        <time>2013-01-30T14:12:16Z</time>
      </trkpt>
      <trkpt lat="43.5648" lon="3.10272">
        <ele>455.337677</ele>
        <time>2013-01-30T14:12:33Z</time>
      </trkpt>
      <trkpt lat="43.5646" lon="3.10299">
        <ele>449.975006</ele>
        <time>2013-01-30T14:12:48Z</time>
      </trkpt>
      <trkpt lat="43.56435" lon="3.10294">
        <ele>457.698212</ele>
        <time>2013-01-30T14:13:03Z</time>
      </trkpt>
      <trkpt lat="43.56384" lon="3.10304">
        <ele>461.614563</ele>
        <time>2013-01-30T14:13:35Z</time>
      </trkpt>
      <trkpt lat="43.56352" lon="3.10298">
        <ele>474.86261</ele>
        <time>2013-01-30T14:13:54Z</time>
      </trkpt>
      <trkpt lat="43.56333" lon="3.10322">
        <ele>473.184387</ele>
        <time>2013-01-30T14:14:09Z</time>
      </trkpt>
      <trkpt lat="43.56312" lon="3.10349">
        <ele>477.141663</ele>
        <time>2013-01-30T14:14:26Z</time>
      </trkpt>
      <trkpt lat="43.56311" lon="3.10383">
        <ele>474.289001</ele>
        <time>2013-01-30T14:14:41Z</time>
      </trkpt>
      <trkpt lat="43.56286" lon="3.10447">
        <ele>486.063995</ele>
        <time>2013-01-30T14:15:15Z</time>
      </trkpt>
      <trkpt lat="43.56278" lon="3.10472">
        <ele>489.458099</ele>
        <time>2013-01-30T14:15:30Z</time>
      </trkpt>
      <trkpt lat="43.56276" lon="3.10506">
        <ele>487.377502</ele>
        <time>2013-01-30T14:15:47Z</time>
      </trkpt>
      <trkpt lat="43.56272" lon="3.10535">
        <ele>486.78537</ele>
        <time>2013-01-30T14:16:02Z</time>
      </trkpt>
      <trkpt lat="43.56265" lon="3.10563">
        <ele>490.410797</ele>
        <time>2013-01-30T14:16:17Z</time>
      </trkpt>
      <trkpt lat="43.56247" lon="3.10624">
        <ele>506.179657</ele>
        <time>2013-01-30T14:16:49Z</time>
      </trkpt>
      <trkpt lat="43.56267" lon="3.1064">
        <ele>504.208862</ele>
        <time>2013-01-30T14:17:05Z</time>
      </trkpt>
      <trkpt lat="43.5629" lon="3.10648">
        <ele>502.370941</ele>
        <time>2013-01-30T14:17:20Z</time>
      </trkpt>
      <trkpt lat="43.56314" lon="3.10655">
        <ele>503.598419</ele>
        <time>2013-01-30T14:17:36Z</time>
      </trkpt>
      <trkpt lat="43.56335" lon="3.10668">
        <ele>504.573456</ele>
        <time>2013-01-30T14:17:50Z</time>
      </trkpt>
      <trkpt lat="43.56353" lon="3.107">
        <ele>507.263763</ele>
        <time>2013-01-30T14:18:09Z</time>
      </trkpt>
      <trkpt lat="43.56365" lon="3.10732">
        <ele>506.680511</ele>
        <time>2013-01-30T14:18:26Z</time>
      </trkpt>
      <trkpt lat="43.56374" lon="3.10761">
        <ele>499.794861</ele>
        <time>2013-01-30T14:18:41Z</time>
      </trkpt>
      <trkpt lat="43.56359" lon="3.10777">
        <ele>503.55249</ele>
        <time>2013-01-30T14:18:55Z</time>
      </trkpt>
      <trkpt lat="43.56338" lon="3.10771">
        <ele>512.244751</ele>
        <time>2013-01-30T14:19:11Z</time>
      </trkpt>
      <trkpt lat="43.56308" lon="3.10788">
        <ele>517.690735</ele>
        <time>2013-01-30T14:19:34Z</time>
      </trkpt>
      <trkpt lat="43.56289" lon="3.10799">
        <ele>518.727112</ele>
        <time>2013-01-30T14:19:47Z</time>
      </trkpt>
      <trkpt lat="43.56259" lon="3.10816">
        <ele>522.694458</ele>
        <time>2013-01-30T14:20:05Z</time>
      </trkpt>
      <trkpt lat="43.56242" lon="3.1084">
        <ele>520.906494</ele>
        <time>2013-01-30T14:20:23Z</time>
      </trkpt>
      <trkpt lat="43.56232" lon="3.10867">
        <ele>513.950623</ele>
        <time>2013-01-30T14:20:39Z</time>
      </trkpt>
      <trkpt lat="43.56207" lon="3.1088">
        <ele>517.428406</ele>
        <time>2013-01-30T14:20:58Z</time>
      </trkpt>
      <trkpt lat="43.56204" lon="3.1088">
        <ele>518.224548</ele>
        <time>2013-01-30T14:21:00Z</time>
      </trkpt>
      <trkpt lat="43.56198" lon="3.10879">
        <ele>520.639282</ele>
        <time>2013-01-30T14:21:05Z</time>
      </trkpt>
      <trkpt lat="43.56176" lon="3.10875">
        <ele>524.173584</ele>
        <time>2013-01-30T14:21:22Z</time>
      </trkpt>
      <trkpt lat="43.5616" lon="3.10859">
        <ele>532.101135</ele>
        <time>2013-01-30T14:21:38Z</time>
      </trkpt>
      <trkpt lat="43.5612" lon="3.10846">
        <ele>535.634277</ele>
        <time>2013-01-30T14:22:10Z</time>
      </trkpt>
      <trkpt lat="43.56097" lon="3.10849">
        <ele>531.740967</ele>
        <time>2013-01-30T14:22:28Z</time>
      </trkpt>
      <trkpt lat="43.56093" lon="3.1085">
        <ele>531.09729</ele>
        <time>2013-01-30T14:22:31Z</time>
      </trkpt>
      <trkpt lat="43.5608" lon="3.10848">
        <ele>531.049683</ele>
        <time>2013-01-30T14:22:41Z</time>
      </trkpt>
      <trkpt lat="43.56054" lon="3.10831">
        <ele>536.945007</ele>
        <time>2013-01-30T14:23:01Z</time>
      </trkpt>
      <trkpt lat="43.56021" lon="3.10802">
        <ele>551.071899</ele>
        <time>2013-01-30T14:23:28Z</time>
      </trkpt>
      <trkpt lat="43.56001" lon="3.10815">
        <ele>549.65686</ele>
        <time>2013-01-30T14:23:42Z</time>
      </trkpt>
      <trkpt lat="43.55976" lon="3.1082">
        <ele>556.127197</ele>
        <time>2013-01-30T14:24:00Z</time>
      </trkpt>
      <trkpt lat="43.55964" lon="3.10837">
        <ele>556.689575</ele>
        <time>2013-01-30T14:24:15Z</time>
      </trkpt>
      <trkpt lat="43.55974" lon="3.10866">
        <ele>556.279724</ele>
        <time>2013-01-30T14:24:35Z</time>
      </trkpt>
      <trkpt lat="43.55981" lon="3.10924">
        <ele>556.392883</ele>
        <time>2013-01-30T14:25:09Z</time>
      </trkpt>
      <trkpt lat="43.5598" lon="3.10948">
        <ele>555.516724</ele>
        <time>2013-01-30T14:25:23Z</time>
      </trkpt>
      <trkpt lat="43.55979" lon="3.10953">
        <ele>555.751709</ele>
        <time>2013-01-30T14:25:37Z</time>
      </trkpt>
      <trkpt lat="43.5598" lon="3.10955">
        <ele>555.160522</ele>
        <time>2013-01-30T14:26:13Z</time>
      </trkpt>
      <trkpt lat="43.55973" lon="3.10968">
        <ele>557.117798</ele>
        <time>2013-01-30T14:26:31Z</time>
      </trkpt>
      <trkpt lat="43.55935" lon="3.11017">
        <ele>561.879578</ele>
        <time>2013-01-30T14:27:02Z</time>
      </trkpt>
      <trkpt lat="43.55912" lon="3.11054">
        <ele>562.044312</ele>
        <time>2013-01-30T14:27:14Z</time>
      </trkpt>
      <trkpt lat="43.55886" lon="3.11094">
        <ele>565.923767</ele>
        <time>2013-01-30T14:27:27Z</time>
      </trkpt>
      <trkpt lat="43.55879" lon="3.11133">
        <ele>566.757507</ele>
        <time>2013-01-30T14:27:37Z</time>
      </trkpt>
      <trkpt lat="43.55894" lon="3.11193">
        <ele>563.964172</ele>
        <time>2013-01-30T14:27:49Z</time>
      </trkpt>
      <trkpt lat="43.55918" lon="3.1123">
        <ele>565.296753</ele>
        <time>2013-01-30T14:28:03Z</time>
      </trkpt>
      <trkpt lat="43.55966" lon="3.11226">
        <ele>559.432373</ele>
        <time>2013-01-30T14:28:19Z</time>
      </trkpt>
      <trkpt lat="43.5599" lon="3.11252">
        <ele>557.607727</ele>
        <time>2013-01-30T14:28:31Z</time>
      </trkpt>
      <trkpt lat="43.55995" lon="3.11298">
        <ele>567.397034</ele>
        <time>2013-01-30T14:28:44Z</time>
      </trkpt>
      <trkpt lat="43.56001" lon="3.11335">
        <ele>572.147522</ele>
        <time>2013-01-30T14:28:58Z</time>
      </trkpt>
      <trkpt lat="43.56006" lon="3.11408">
        <ele>576.147034</ele>
        <time>2013-01-30T14:29:32Z</time>
      </trkpt>
      <trkpt lat="43.55999" lon="3.11423">
        <ele>581.336853</ele>
        <time>2013-01-30T14:29:41Z</time>
      </trkpt>
      <trkpt lat="43.55999" lon="3.11449">
        <ele>582.123596</ele>
        <time>2013-01-30T14:29:55Z</time>
      </trkpt>
      <trkpt lat="43.56002" lon="3.11454">
        <ele>580.479553</ele>
        <time>2013-01-30T14:29:58Z</time>
      </trkpt>
      <trkpt lat="43.56025" lon="3.1149">
        <ele>574.693054</ele>
        <time>2013-01-30T14:30:17Z</time>
      </trkpt>
      <trkpt lat="43.56023" lon="3.11564">
        <ele>585.882202</ele>
        <time>2013-01-30T14:30:47Z</time>
      </trkpt>
      <trkpt lat="43.5601" lon="3.11598">
        <ele>596.076904</ele>
        <time>2013-01-30T14:31:03Z</time>
      </trkpt>
      <trkpt lat="43.56008" lon="3.11629">
        <ele>598.037781</ele>
        <time>2013-01-30T14:31:17Z</time>
      </trkpt>
      <trkpt lat="43.56019" lon="3.11658">
        <ele>599.112732</ele>
        <time>2013-01-30T14:31:34Z</time>
      </trkpt>
      <trkpt lat="43.56035" lon="3.11681">
        <ele>603.355835</ele>
        <time>2013-01-30T14:31:51Z</time>
      </trkpt>
      <trkpt lat="43.56067" lon="3.11724">
        <ele>616.402222</ele>
        <time>2013-01-30T14:32:25Z</time>
      </trkpt>
      <trkpt lat="43.56088" lon="3.11733">
        <ele>616.933533</ele>
        <time>2013-01-30T14:32:42Z</time>
      </trkpt>
      <trkpt lat="43.56093" lon="3.11734">
        <ele>616.737366</ele>
        <time>2013-01-30T14:32:46Z</time>
      </trkpt>
      <trkpt lat="43.56099" lon="3.11735">
        <ele>616.420593</ele>
        <time>2013-01-30T14:32:51Z</time>
      </trkpt>
      <trkpt lat="43.56107" lon="3.11738">
        <ele>616.715088</ele>
        <time>2013-01-30T14:32:57Z</time>
      </trkpt>
      <trkpt lat="43.56128" lon="3.11744">
        <ele>617.980408</ele>
        <time>2013-01-30T14:33:14Z</time>
      </trkpt>
      <trkpt lat="43.56145" lon="3.11744">
        <ele>617.414978</ele>
        <time>2013-01-30T14:33:27Z</time>
      </trkpt>
      <trkpt lat="43.56164" lon="3.11734">
        <ele>614.220825</ele>
        <time>2013-01-30T14:33:43Z</time>
      </trkpt>
      <trkpt lat="43.56184" lon="3.11723">
        <ele>610.676392</ele>
        <time>2013-01-30T14:34:00Z</time>
      </trkpt>
      <trkpt lat="43.56186" lon="3.11722">
        <ele>610.658203</ele>
        <time>2013-01-30T14:34:01Z</time>
      </trkpt>
      <trkpt lat="43.56173" lon="3.11747">
        <ele>621.695679</ele>
        <time>2013-01-30T14:34:24Z</time>
      </trkpt>
      <trkpt lat="43.56152" lon="3.11765">
        <ele>628.999695</ele>
        <time>2013-01-30T14:34:40Z</time>
      </trkpt>
      <trkpt lat="43.56132" lon="3.11773">
        <ele>631.84198</ele>
        <time>2013-01-30T14:34:56Z</time>
      </trkpt>
      <trkpt lat="43.5612" lon="3.11772">
        <ele>632.331421</ele>
        <time>2013-01-30T14:35:04Z</time>
      </trkpt>
      <trkpt lat="43.56099" lon="3.11772">
        <ele>633.364014</ele>
        <time>2013-01-30T14:35:19Z</time>
      </trkpt>
      <trkpt lat="43.56047" lon="3.1177">
        <ele>640.738525</ele>
        <time>2013-01-30T14:35:49Z</time>
      </trkpt>
      <trkpt lat="43.56022" lon="3.11756">
        <ele>641.242859</ele>
        <time>2013-01-30T14:36:04Z</time>
      </trkpt>
      <trkpt lat="43.56002" lon="3.11744">
        <ele>640.703308</ele>
        <time>2013-01-30T14:36:17Z</time>
      </trkpt>
      <trkpt lat="43.55974" lon="3.1173">
        <ele>641.627747</ele>
        <time>2013-01-30T14:36:35Z</time>
      </trkpt>
      <trkpt lat="43.5595" lon="3.11717">
        <ele>641.621094</ele>
        <time>2013-01-30T14:36:51Z</time>
      </trkpt>
      <trkpt lat="43.55922" lon="3.11667">
        <ele>641.984436</ele>
        <time>2013-01-30T14:37:18Z</time>
      </trkpt>
      <trkpt lat="43.55911" lon="3.11633">
        <ele>643.83551</ele>
        <time>2013-01-30T14:37:35Z</time>
      </trkpt>
      <trkpt lat="43.55904" lon="3.11628">
        <ele>643.498779</ele>
        <time>2013-01-30T14:43:32Z</time>
      </trkpt>
      <trkpt lat="43.55904" lon="3.11629">
        <ele>643.382019</ele>
        <time>2013-01-30T14:44:07Z</time>
      </trkpt>
      <trkpt lat="43.55905" lon="3.11626">
        <ele>643.767029</ele>
        <time>2013-01-30T14:45:07Z</time>
      </trkpt>
      <trkpt lat="43.55904" lon="3.11625">
        <ele>643.816772</ele>
        <time>2013-01-30T14:45:39Z</time>
      </trkpt>
      <trkpt lat="43.55906" lon="3.11641">
        <ele>642.430664</ele>
        <time>2013-01-30T14:46:17Z</time>
      </trkpt>
      <trkpt lat="43.5591" lon="3.1167">
        <ele>642.143921</ele>
        <time>2013-01-30T14:46:34Z</time>
      </trkpt>
      <trkpt lat="43.5591" lon="3.11718">
        <ele>641.907654</ele>
        <time>2013-01-30T14:46:48Z</time>
      </trkpt>
      <trkpt lat="43.55911" lon="3.11744">
        <ele>643.690674</ele>
        <time>2013-01-30T14:46:51Z</time>
      </trkpt>
      <trkpt lat="43.55909" lon="3.11765">
        <ele>644.137268</ele>
        <time>2013-01-30T14:46:53Z</time>
      </trkpt>
      <trkpt lat="43.5589" lon="3.11839">
        <ele>639.448792</ele>
        <time>2013-01-30T14:46:59Z</time>
      </trkpt>
      <trkpt lat="43.55879" lon="3.11874">
        <ele>634.495972</ele>
        <time>2013-01-30T14:47:02Z</time>
      </trkpt>
      <trkpt lat="43.55875" lon="3.11926">
        <ele>629.389343</ele>
        <time>2013-01-30T14:47:08Z</time>
      </trkpt>
      <trkpt lat="43.55878" lon="3.11973">
        <ele>623.859924</ele>
        <time>2013-01-30T14:47:13Z</time>
      </trkpt>
      <trkpt lat="43.55902" lon="3.12014">
        <ele>621.424805</ele>
        <time>2013-01-30T14:47:23Z</time>
      </trkpt>
      <trkpt lat="43.55899" lon="3.12028">
        <ele>619.796265</ele>
        <time>2013-01-30T14:47:33Z</time>
      </trkpt>
      <trkpt lat="43.55886" lon="3.12022">
        <ele>617.408386</ele>
        <time>2013-01-30T14:47:37Z</time>
      </trkpt>
      <trkpt lat="43.55876" lon="3.12018">
        <ele>615.635803</ele>
        <time>2013-01-30T14:47:39Z</time>
      </trkpt>
      <trkpt lat="43.55843" lon="3.11997">
        <ele>610.929626</ele>
        <time>2013-01-30T14:47:45Z</time>
      </trkpt>
      <trkpt lat="43.55818" lon="3.11979">
        <ele>605.402344</ele>
        <time>2013-01-30T14:47:51Z</time>
      </trkpt>
      <trkpt lat="43.55803" lon="3.11947">
        <ele>601.943665</ele>
        <time>2013-01-30T14:47:59Z</time>
      </trkpt>
      <trkpt lat="43.55797" lon="3.11926">
        <ele>599.466187</ele>
        <time>2013-01-30T14:48:09Z</time>
      </trkpt>
      <trkpt lat="43.55792" lon="3.11898">
        <ele>597.337158</ele>
        <time>2013-01-30T14:48:17Z</time>
      </trkpt>
      <trkpt lat="43.55791" lon="3.11891">
        <ele>596.868042</ele>
        <time>2013-01-30T14:48:18Z</time>
      </trkpt>
      <trkpt lat="43.55794" lon="3.11837">
        <ele>594.348877</ele>
        <time>2013-01-30T14:48:30Z</time>
      </trkpt>
      <trkpt lat="43.5579" lon="3.11844">
        <ele>593.289978</ele>
        <time>2013-01-30T14:48:35Z</time>
      </trkpt>
      <trkpt lat="43.55782" lon="3.11859">
        <ele>590.739868</ele>
        <time>2013-01-30T14:48:39Z</time>
      </trkpt>
      <trkpt lat="43.55767" lon="3.11893">
        <ele>586.019409</ele>
        <time>2013-01-30T14:48:48Z</time>
      </trkpt>
      <trkpt lat="43.55757" lon="3.11924">
        <ele>582.398987</ele>
        <time>2013-01-30T14:48:54Z</time>
      </trkpt>
      <trkpt lat="43.55742" lon="3.11964">
        <ele>577.748535</ele>
        <time>2013-01-30T14:49:03Z</time>
      </trkpt>
      <trkpt lat="43.55735" lon="3.11978">
        <ele>575.359924</ele>
        <time>2013-01-30T14:49:06Z</time>
      </trkpt>
      <trkpt lat="43.5573" lon="3.11989">
        <ele>573.525024</ele>
        <time>2013-01-30T14:49:08Z</time>
      </trkpt>
      <trkpt lat="43.55719" lon="3.12014">
        <ele>569.47876</ele>
        <time>2013-01-30T14:49:12Z</time>
      </trkpt>
      <trkpt lat="43.5571" lon="3.1203">
        <ele>565.64624</ele>
        <time>2013-01-30T14:49:15Z</time>
      </trkpt>
      <trkpt lat="43.55699" lon="3.12061">
        <ele>560.436279</ele>
        <time>2013-01-30T14:49:20Z</time>
      </trkpt>
      <trkpt lat="43.55697" lon="3.12066">
        <ele>559.798767</ele>
        <time>2013-01-30T14:49:21Z</time>
      </trkpt>
      <trkpt lat="43.55688" lon="3.12089">
        <ele>555.583618</ele>
        <time>2013-01-30T14:49:25Z</time>
      </trkpt>
      <trkpt lat="43.55677" lon="3.12115">
        <ele>551.107849</ele>
        <time>2013-01-30T14:49:29Z</time>
      </trkpt>
      <trkpt lat="43.55667" lon="3.12133">
        <ele>547.733704</ele>
        <time>2013-01-30T14:49:32Z</time>
      </trkpt>
      <trkpt lat="43.55639" lon="3.12147">
        <ele>541.325745</ele>
        <time>2013-01-30T14:49:39Z</time>
      </trkpt>
      <trkpt lat="43.55617" lon="3.12152">
        <ele>535.629333</ele>
        <time>2013-01-30T14:49:42Z</time>
      </trkpt>
      <trkpt lat="43.55582" lon="3.12175">
        <ele>531.260315</ele>
        <time>2013-01-30T14:49:47Z</time>
      </trkpt>
      <trkpt lat="43.55543" lon="3.1221">
        <ele>526.839844</ele>
        <time>2013-01-30T14:49:53Z</time>
      </trkpt>
      <trkpt lat="43.55524" lon="3.12261">
        <ele>523.690002</ele>
        <time>2013-01-30T14:49:59Z</time>
      </trkpt>
      <trkpt lat="43.55515" lon="3.1235">
        <ele>517.543457</ele>
        <time>2013-01-30T14:50:07Z</time>
      </trkpt>
      <trkpt lat="43.55492" lon="3.12379">
        <ele>516.07074</ele>
        <time>2013-01-30T14:50:11Z</time>
      </trkpt>
      <trkpt lat="43.55468" lon="3.12378">
        <ele>512.892517</ele>
        <time>2013-01-30T14:50:14Z</time>
      </trkpt>
      <trkpt lat="43.55459" lon="3.12377">
        <ele>511.366852</ele>
        <time>2013-01-30T14:50:15Z</time>
      </trkpt>
      <trkpt lat="43.55451" lon="3.12378">
        <ele>509.394531</ele>
        <time>2013-01-30T14:50:16Z</time>
      </trkpt>
      <trkpt lat="43.55436" lon="3.12385">
        <ele>506.275452</ele>
        <time>2013-01-30T14:50:18Z</time>
      </trkpt>
      <trkpt lat="43.55429" lon="3.12393">
        <ele>505.202301</ele>
        <time>2013-01-30T14:50:19Z</time>
      </trkpt>
      <trkpt lat="43.55424" lon="3.12402">
        <ele>504.477478</ele>
        <time>2013-01-30T14:50:20Z</time>
      </trkpt>
      <trkpt lat="43.55419" lon="3.12412">
        <ele>503.993958</ele>
        <time>2013-01-30T14:50:21Z</time>
      </trkpt>
      <trkpt lat="43.55415" lon="3.12424">
        <ele>503.760742</ele>
        <time>2013-01-30T14:50:22Z</time>
      </trkpt>
      <trkpt lat="43.5541" lon="3.12448">
        <ele>502.663239</ele>
        <time>2013-01-30T14:50:24Z</time>
      </trkpt>
      <trkpt lat="43.55408" lon="3.1246">
        <ele>501.797485</ele>
        <time>2013-01-30T14:50:25Z</time>
      </trkpt>
      <trkpt lat="43.55409" lon="3.12512">
        <ele>498.893707</ele>
        <time>2013-01-30T14:50:29Z</time>
      </trkpt>
      <trkpt lat="43.5541" lon="3.12526">
        <ele>497.735962</ele>
        <time>2013-01-30T14:50:30Z</time>
      </trkpt>
      <trkpt lat="43.5542" lon="3.1256">
        <ele>495.568878</ele>
        <time>2013-01-30T14:50:33Z</time>
      </trkpt>
      <trkpt lat="43.55416" lon="3.12586">
        <ele>490.397736</ele>
        <time>2013-01-30T14:50:39Z</time>
      </trkpt>
      <trkpt lat="43.5541" lon="3.12585">
        <ele>489.811951</ele>
        <time>2013-01-30T14:50:40Z</time>
      </trkpt>
      <trkpt lat="43.55397" lon="3.12582">
        <ele>488.493195</ele>
        <time>2013-01-30T14:50:42Z</time>
      </trkpt>
      <trkpt lat="43.55358" lon="3.12555">
        <ele>484.360962</ele>
        <time>2013-01-30T14:50:48Z</time>
      </trkpt>
      <trkpt lat="43.55354" lon="3.12545">
        <ele>483.615326</ele>
        <time>2013-01-30T14:50:49Z</time>
      </trkpt>
      <trkpt lat="43.55331" lon="3.12457">
        <ele>478.431183</ele>
        <time>2013-01-30T14:50:57Z</time>
      </trkpt>
      <trkpt lat="43.55318" lon="3.12458">
        <ele>474.091095</ele>
        <time>2013-01-30T14:51:02Z</time>
      </trkpt>
      <trkpt lat="43.55315" lon="3.12472">
        <ele>473.133789</ele>
        <time>2013-01-30T14:51:04Z</time>
      </trkpt>
      <trkpt lat="43.55301" lon="3.12525">
        <ele>469.211304</ele>
        <time>2013-01-30T14:51:10Z</time>
      </trkpt>
      <trkpt lat="43.55289" lon="3.12572">
        <ele>465.985321</ele>
        <time>2013-01-30T14:51:14Z</time>
      </trkpt>
      <trkpt lat="43.55279" lon="3.12613">
        <ele>462.823761</ele>
        <time>2013-01-30T14:51:17Z</time>
      </trkpt>
      <trkpt lat="43.55276" lon="3.12628">
        <ele>461.409973</ele>
        <time>2013-01-30T14:51:18Z</time>
      </trkpt>
      <trkpt lat="43.55255" lon="3.12696">
        <ele>454.937988</ele>
        <time>2013-01-30T14:51:23Z</time>
      </trkpt>
      <trkpt lat="43.55249" lon="3.12715">
        <ele>453.417999</ele>
        <time>2013-01-30T14:51:26Z</time>
      </trkpt>
      <trkpt lat="43.5525" lon="3.12717">
        <ele>453.502686</ele>
        <time>2013-01-30T14:51:41Z</time>
      </trkpt>
      <trkpt lat="43.55249" lon="3.12716">
        <ele>453.379059</ele>
        <time>2013-01-30T14:52:23Z</time>
      </trkpt>
      <trkpt lat="43.55249" lon="3.12716">
        <ele>453.328125</ele>
        <time>2013-01-30T14:52:46Z</time>
      </trkpt>
      <trkpt lat="43.55248" lon="3.12717">
        <ele>453.256439</ele>
        <time>2013-01-30T14:53:13Z</time>
      </trkpt>
      <trkpt lat="43.55248" lon="3.12715">
        <ele>453.299408</ele>
        <time>2013-01-30T14:53:29Z</time>
      </trkpt>
      <trkpt lat="43.55244" lon="3.12703">
        <ele>452.941895</ele>
        <time>2013-01-30T14:53:36Z</time>
      </trkpt>
      <trkpt lat="43.55245" lon="3.12697">
        <ele>453.129364</ele>
        <time>2013-01-30T14:53:38Z</time>
      </trkpt>
      <trkpt lat="43.55245" lon="3.12694">
        <ele>453.124329</ele>
        <time>2013-01-30T14:53:39Z</time>
      </trkpt>
      <trkpt lat="43.55245" lon="3.12692">
        <ele>453.136993</ele>
        <time>2013-01-30T14:53:40Z</time>
      </trkpt>
      <trkpt lat="43.55244" lon="3.12689">
        <ele>453.032013</ele>
        <time>2013-01-30T14:53:41Z</time>
      </trkpt>
      <trkpt lat="43.55243" lon="3.12687">
        <ele>452.86554</ele>
        <time>2013-01-30T14:53:42Z</time>
      </trkpt>
      <trkpt lat="43.55242" lon="3.12683">
        <ele>452.548798</ele>
        <time>2013-01-30T14:53:44Z</time>
      </trkpt>
      <trkpt lat="43.55241" lon="3.12681">
        <ele>452.266205</ele>
        <time>2013-01-30T14:53:59Z</time>
      </trkpt>
      <trkpt lat="43.55241" lon="3.12679">
        <ele>452.205658</ele>
        <time>2013-01-30T14:54:32Z</time>
      </trkpt>
      <trkpt lat="43.55241" lon="3.12679">
        <ele>452.209351</ele>
        <time>2013-01-30T14:55:00Z</time>
      </trkpt>
      <trkpt lat="43.55231" lon="3.12663">
        <ele>449.409973</ele>
        <time>2013-01-30T14:55:15Z</time>
      </trkpt>
      <trkpt lat="43.55219" lon="3.12642">
        <ele>445.205627</ele>
        <time>2013-01-30T14:55:20Z</time>
      </trkpt>
      <trkpt lat="43.55217" lon="3.12636">
        <ele>444.263</ele>
        <time>2013-01-30T14:55:21Z</time>
      </trkpt>
      <trkpt lat="43.55215" lon="3.12631">
        <ele>443.3414</ele>
        <time>2013-01-30T14:55:22Z</time>
      </trkpt>
      <trkpt lat="43.55212" lon="3.12626">
        <ele>442.222443</ele>
        <time>2013-01-30T14:55:23Z</time>
      </trkpt>
      <trkpt lat="43.55209" lon="3.12622">
        <ele>440.843536</ele>
        <time>2013-01-30T14:55:24Z</time>
      </trkpt>
      <trkpt lat="43.55201" lon="3.12615">
        <ele>438.522491</ele>
        <time>2013-01-30T14:55:26Z</time>
      </trkpt>
      <trkpt lat="43.55181" lon="3.1259">
        <ele>432.86908</ele>
        <time>2013-01-30T14:55:32Z</time>
      </trkpt>
      <trkpt lat="43.55178" lon="3.12581">
        <ele>432.035828</ele>
        <time>2013-01-30T14:55:34Z</time>
      </trkpt>
      <trkpt lat="43.5516" lon="3.12563">
        <ele>427.004822</ele>
        <time>2013-01-30T14:55:39Z</time>
      </trkpt>
      <trkpt lat="43.55149" lon="3.12555">
        <ele>423.845001</ele>
        <time>2013-01-30T14:55:42Z</time>
      </trkpt>
      <trkpt lat="43.5512" lon="3.12529">
        <ele>416.130005</ele>
        <time>2013-01-30T14:55:49Z</time>
      </trkpt>
      <trkpt lat="43.55099" lon="3.12509">
        <ele>410.318939</ele>
        <time>2013-01-30T14:55:55Z</time>
      </trkpt>
      <trkpt lat="43.55083" lon="3.12508">
        <ele>406.302124</ele>
        <time>2013-01-30T14:55:58Z</time>
      </trkpt>
      <trkpt lat="43.55066" lon="3.12505">
        <ele>401.861481</ele>
        <time>2013-01-30T14:56:01Z</time>
      </trkpt>
      <trkpt lat="43.55053" lon="3.12497">
        <ele>398.816437</ele>
        <time>2013-01-30T14:56:04Z</time>
      </trkpt>
      <trkpt lat="43.55028" lon="3.1249">
        <ele>395.583252</ele>
        <time>2013-01-30T14:56:10Z</time>
      </trkpt>
      <trkpt lat="43.55009" lon="3.12488">
        <ele>393.910492</ele>
        <time>2013-01-30T14:56:14Z</time>
      </trkpt>
      <trkpt lat="43.55004" lon="3.12483">
        <ele>393.97641</ele>
        <time>2013-01-30T14:56:15Z</time>
      </trkpt>
      <trkpt lat="43.54983" lon="3.12447">
        <ele>392.23407</ele>
        <time>2013-01-30T14:56:21Z</time>
      </trkpt>
      <trkpt lat="43.54967" lon="3.12439">
        <ele>391.941772</ele>
        <time>2013-01-30T14:56:29Z</time>
      </trkpt>
      <trkpt lat="43.5495" lon="3.12436">
        <ele>391.700409</ele>
        <time>2013-01-30T14:56:55Z</time>
      </trkpt>
      <trkpt lat="43.54946" lon="3.12435">
        <ele>391.745239</ele>
        <time>2013-01-30T14:57:14Z</time>
      </trkpt>
      <trkpt lat="43.54942" lon="3.12435">
        <ele>391.787476</ele>
        <time>2013-01-30T14:57:17Z</time>
      </trkpt>
      <trkpt lat="43.54928" lon="3.12438">
        <ele>392.078949</ele>
        <time>2013-01-30T14:57:22Z</time>
      </trkpt>
      <trkpt lat="43.54915" lon="3.12444">
        <ele>390.312653</ele>
        <time>2013-01-30T14:57:25Z</time>
      </trkpt>
      <trkpt lat="43.54885" lon="3.12457">
        <ele>382.819153</ele>
        <time>2013-01-30T14:57:33Z</time>
      </trkpt>
      <trkpt lat="43.5487" lon="3.12458">
        <ele>380.108429</ele>
        <time>2013-01-30T14:57:38Z</time>
      </trkpt>
      <trkpt lat="43.54865" lon="3.12453">
        <ele>379.320435</ele>
        <time>2013-01-30T14:57:41Z</time>
      </trkpt>
      <trkpt lat="43.54853" lon="3.12442">
        <ele>377.484436</ele>
        <time>2013-01-30T14:57:46Z</time>
      </trkpt>
      <trkpt lat="43.54819" lon="3.12424">
        <ele>372.414703</ele>
        <time>2013-01-30T14:57:56Z</time>
      </trkpt>
      <trkpt lat="43.54797" lon="3.12425">
        <ele>367.728363</ele>
        <time>2013-01-30T14:58:02Z</time>
      </trkpt>
      <trkpt lat="43.54781" lon="3.12424">
        <ele>365.422852</ele>
        <time>2013-01-30T14:58:06Z</time>
      </trkpt>
      <trkpt lat="43.54763" lon="3.12426">
        <ele>365.012543</ele>
        <time>2013-01-30T14:58:16Z</time>
      </trkpt>
      <trkpt lat="43.54761" lon="3.12427">
        <ele>365.072113</ele>
        <time>2013-01-30T14:59:02Z</time>
      </trkpt>
      <trkpt lat="43.5476" lon="3.12426">
        <ele>364.975891</ele>
        <time>2013-01-30T14:59:29Z</time>
      </trkpt>
      <trkpt lat="43.54759" lon="3.12427">
        <ele>365.096863</ele>
        <time>2013-01-30T14:59:46Z</time>
      </trkpt>
      <trkpt lat="43.5476" lon="3.12424">
        <ele>364.613007</ele>
        <time>2013-01-30T15:00:16Z</time>
      </trkpt>
      <trkpt lat="43.54745" lon="3.1242">
        <ele>363.397003</ele>
        <time>2013-01-30T15:00:23Z</time>
      </trkpt>
      <trkpt lat="43.54738" lon="3.12423">
        <ele>362.852081</ele>
        <time>2013-01-30T15:00:26Z</time>
      </trkpt>
      <trkpt lat="43.54726" lon="3.12429">
        <ele>361.377991</ele>
        <time>2013-01-30T15:00:32Z</time>
      </trkpt>
      <trkpt lat="43.54722" lon="3.12429">
        <ele>360.420715</ele>
        <time>2013-01-30T15:00:35Z</time>
      </trkpt>
      <trkpt lat="43.5468" lon="3.12458">
        <ele>348.585297</ele>
        <time>2013-01-30T15:00:54Z</time>
      </trkpt>
      <trkpt lat="43.54669" lon="3.1247">
        <ele>344.959076</ele>
        <time>2013-01-30T15:01:01Z</time>
      </trkpt>
      <trkpt lat="43.54656" lon="3.12486">
        <ele>341.083374</ele>
        <time>2013-01-30T15:01:09Z</time>
      </trkpt>
      <trkpt lat="43.54644" lon="3.12494">
        <ele>338.271881</ele>
        <time>2013-01-30T15:01:16Z</time>
      </trkpt>
      <trkpt lat="43.54638" lon="3.12502">
        <ele>337.933838</ele>
        <time>2013-01-30T15:01:23Z</time>
      </trkpt>
      <trkpt lat="43.54625" lon="3.12503">
        <ele>334.718414</ele>
        <time>2013-01-30T15:01:29Z</time>
      </trkpt>
      <trkpt lat="43.54622" lon="3.12503">
        <ele>333.788422</ele>
        <time>2013-01-30T15:01:30Z</time>
      </trkpt>
      <trkpt lat="43.54619" lon="3.12501">
        <ele>332.782715</ele>
        <time>2013-01-30T15:01:31Z</time>
      </trkpt>
      <trkpt lat="43.54617" lon="3.125">
        <ele>331.837158</ele>
        <time>2013-01-30T15:01:32Z</time>
      </trkpt>
      <trkpt lat="43.54611" lon="3.125">
        <ele>330.319183</ele>
        <time>2013-01-30T15:01:34Z</time>
      </trkpt>
      <trkpt lat="43.54607" lon="3.125">
        <ele>329.242493</ele>
        <time>2013-01-30T15:01:36Z</time>
      </trkpt>
      <trkpt lat="43.54606" lon="3.12499">
        <ele>328.866241</ele>
        <time>2013-01-30T15:01:37Z</time>
      </trkpt>
      <trkpt lat="43.54606" lon="3.12496">
        <ele>328.33316</ele>
        <time>2013-01-30T15:01:38Z</time>
      </trkpt>
      <trkpt lat="43.54604" lon="3.12493">
        <ele>327.472046</ele>
        <time>2013-01-30T15:01:40Z</time>
      </trkpt>
      <trkpt lat="43.54601" lon="3.12492">
        <ele>326.649994</ele>
        <time>2013-01-30T15:01:41Z</time>
      </trkpt>
      <trkpt lat="43.54597" lon="3.12493">
        <ele>326.293854</ele>
        <time>2013-01-30T15:01:43Z</time>
      </trkpt>
      <trkpt lat="43.54595" lon="3.12495">
        <ele>326.201538</ele>
        <time>2013-01-30T15:01:44Z</time>
      </trkpt>
      <trkpt lat="43.54591" lon="3.12499">
        <ele>326.215485</ele>
        <time>2013-01-30T15:01:46Z</time>
      </trkpt>
      <trkpt lat="43.5459" lon="3.125">
        <ele>326.283783</ele>
        <time>2013-01-30T15:01:47Z</time>
      </trkpt>
      <trkpt lat="43.54589" lon="3.12501">
        <ele>326.162964</ele>
        <time>2013-01-30T15:01:48Z</time>
      </trkpt>
      <trkpt lat="43.54586" lon="3.12502">
        <ele>325.831757</ele>
        <time>2013-01-30T15:01:50Z</time>
      </trkpt>
      <trkpt lat="43.54584" lon="3.12506">
        <ele>325.924744</ele>
        <time>2013-01-30T15:01:52Z</time>
      </trkpt>
      <trkpt lat="43.54582" lon="3.12508">
        <ele>325.902008</ele>
        <time>2013-01-30T15:01:53Z</time>
      </trkpt>
      <trkpt lat="43.54581" lon="3.1251">
        <ele>325.802887</ele>
        <time>2013-01-30T15:01:54Z</time>
      </trkpt>
      <trkpt lat="43.54579" lon="3.12512">
        <ele>325.634705</ele>
        <time>2013-01-30T15:01:55Z</time>
      </trkpt>
      <trkpt lat="43.54533" lon="3.12524">
        <ele>319.693756</ele>
        <time>2013-01-30T15:02:09Z</time>
      </trkpt>
      <trkpt lat="43.54528" lon="3.12524">
        <ele>319.200012</ele>
        <time>2013-01-30T15:02:10Z</time>
      </trkpt>
      <trkpt lat="43.54512" lon="3.12527">
        <ele>317.482178</ele>
        <time>2013-01-30T15:02:14Z</time>
      </trkpt>
      <trkpt lat="43.5451" lon="3.1253">
        <ele>317.306335</ele>
        <time>2013-01-30T15:02:15Z</time>
      </trkpt>
      <trkpt lat="43.54508" lon="3.12533">
        <ele>317.362976</ele>
        <time>2013-01-30T15:02:16Z</time>
      </trkpt>
      <trkpt lat="43.54513" lon="3.12543">
        <ele>318.777985</ele>
        <time>2013-01-30T15:02:19Z</time>
      </trkpt>
      <trkpt lat="43.54516" lon="3.12544">
        <ele>319.361664</ele>
        <time>2013-01-30T15:02:20Z</time>
      </trkpt>
      <trkpt lat="43.54518" lon="3.12546">
        <ele>319.862518</ele>
        <time>2013-01-30T15:02:21Z</time>
      </trkpt>
      <trkpt lat="43.54518" lon="3.12549">
        <ele>320.162506</ele>
        <time>2013-01-30T15:02:22Z</time>
      </trkpt>
      <trkpt lat="43.54513" lon="3.12552">
        <ele>319.772797</ele>
        <time>2013-01-30T15:02:24Z</time>
      </trkpt>
      <trkpt lat="43.54504" lon="3.12551">
        <ele>317.930817</ele>
        <time>2013-01-30T15:02:26Z</time>
      </trkpt>
      <trkpt lat="43.54493" lon="3.12549">
        <ele>315.205902</ele>
        <time>2013-01-30T15:02:28Z</time>
      </trkpt>
      <trkpt lat="43.54473" lon="3.12543">
        <ele>311.347595</ele>
        <time>2013-01-30T15:02:31Z</time>
      </trkpt>
      <trkpt lat="43.54456" lon="3.12531">
        <ele>310.191742</ele>
        <time>2013-01-30T15:02:34Z</time>
      </trkpt>
      <trkpt lat="43.54452" lon="3.12529">
        <ele>309.953857</ele>
        <time>2013-01-30T15:02:35Z</time>
      </trkpt>
    </trkseg>
  </trk>
</gpx>